CPA289 VHHH-EDDF
Flight info
| Callsign | CPA289 |
|---|---|
| Flight time | 12h 50m |
| Altitude | 30100 |
| Route | BEKOL A461 SHL W22 TEPID W24 TAN/K0939S0980 W24 OSNOV G586 QP B330 ELKAL W179 IGNAK/K0939S0950 W179 IPLOL/K0928S1010 W179 WFX/K0933S0980 W179 OMBON W195 VIDEK/K0924S1010 W195 LAXAL/K0928S0980 W195 IDOPA W197 ANDIM B215 OMGUP/K0909S1040 B215 IBANO G470 AKLAS W192 FKG A368 SARIN/K0898F340 N161 RITET/K0896F360 N161 GASBI/N0491F360 N161 LEYLA T916 MATAL DCT TABAS DCT REBLO UM11 CRM UL746 ADUMU/N0487F380 UL746 ODERO DCT OPT DCT IRLOX DCT BALUX DCT TEKNO DCT ABETI DCT SUBEN DCT AKINI T161 DEBHI DEBHI1B |
| Aircraft | B77W/H-SDE1E2E3FGHIJ2J3J4J5M1RWXY/LB1D1 |
Departure
| Time | 2026-05-06 00:05 |
|---|---|
| Airport | Hong Kong International Airport (VHHH) |
Arrival
| Time | 2026-05-06 12:56 |
|---|---|
| Airport | Frankfurt Main Airport (EDDF) |
| Time | Latitude | Longitude | Altitude | Speed | Heading |
|---|---|---|---|---|---|
| 2026-05-05 23:39 | 22.31607 | 113.93281 | 37 ft | 0 kts | 105° |
| 2026-05-05 23:51 | 22.31610 | 113.93271 | 36 ft | 4 kts | 105° |
| 2026-05-05 23:51 | 22.31616 | 113.93242 | 37 ft | 4 kts | 105° |
| 2026-05-05 23:51 | 22.31624 | 113.93215 | 35 ft | 4 kts | 113° |
| 2026-05-05 23:52 | 22.31631 | 113.93195 | 36 ft | 4 kts | 84° |
| 2026-05-05 23:52 | 22.31621 | 113.93171 | 37 ft | 3 kts | 45° |
| 2026-05-05 23:52 | 22.31607 | 113.93154 | 37 ft | 4 kts | 69° |
| 2026-05-05 23:52 | 22.31600 | 113.93131 | 37 ft | 3 kts | 71° |
| 2026-05-05 23:53 | 22.31591 | 113.93104 | 37 ft | 3 kts | 71° |
| 2026-05-05 23:53 | 22.31589 | 113.93099 | 37 ft | 0 kts | 71° |
| 2026-05-05 23:56 | 22.31594 | 113.93113 | 37 ft | 5 kts | 71° |
| 2026-05-05 23:56 | 22.31625 | 113.93168 | 37 ft | 10 kts | 39° |
| 2026-05-05 23:57 | 22.31692 | 113.93180 | 37 ft | 10 kts | 351° |
| 2026-05-05 23:57 | 22.31760 | 113.93167 | 37 ft | 10 kts | 346° |
| 2026-05-05 23:57 | 22.31823 | 113.93141 | 37 ft | 5 kts | 334° |
| 2026-05-05 23:57 | 22.31850 | 113.93120 | 40 ft | 5 kts | 315° |
| 2026-05-05 23:58 | 22.31861 | 113.93082 | 41 ft | 5 kts | 275° |
| 2026-05-05 23:58 | 22.31864 | 113.93042 | 41 ft | 5 kts | 275° |
| 2026-05-05 23:58 | 22.31857 | 113.93003 | 41 ft | 6 kts | 253° |
| 2026-05-05 23:58 | 22.31845 | 113.92963 | 41 ft | 6 kts | 248° |
| 2026-05-05 23:59 | 22.31820 | 113.92910 | 41 ft | 13 kts | 244° |
| 2026-05-05 23:59 | 22.31771 | 113.92759 | 42 ft | 30 kts | 252° |
| 2026-05-05 23:59 | 22.31686 | 113.92490 | 41 ft | 45 kts | 250° |
| 2026-05-05 23:59 | 22.31567 | 113.92120 | 41 ft | 58 kts | 250° |
| 2026-05-06 00:00 | 22.31472 | 113.91831 | 41 ft | 65 kts | 251° |
| 2026-05-06 00:00 | 22.31344 | 113.91432 | 42 ft | 53 kts | 251° |
| 2026-05-06 00:00 | 22.31228 | 113.91073 | 42 ft | 49 kts | 251° |
| 2026-05-06 00:00 | 22.31121 | 113.90742 | 42 ft | 45 kts | 250° |
| 2026-05-06 00:01 | 22.30992 | 113.90343 | 41 ft | 40 kts | 250° |
| 2026-05-06 00:01 | 22.30904 | 113.90069 | 41 ft | 37 kts | 251° |
| 2026-05-06 00:01 | 22.30857 | 113.89922 | 41 ft | 15 kts | 251° |
| 2026-05-06 00:01 | 22.30841 | 113.89869 | 41 ft | 5 kts | 255° |
| 2026-05-06 00:02 | 22.30843 | 113.89837 | 41 ft | 4 kts | 282° |
| 2026-05-06 00:02 | 22.30847 | 113.89816 | 41 ft | 0 kts | 281° |
| 2026-05-06 00:02 | 22.30848 | 113.89814 | 41 ft | 1 kts | 284° |
| 2026-05-06 00:02 | 22.30852 | 113.89807 | 41 ft | 3 kts | 303° |
| 2026-05-06 00:03 | 22.30886 | 113.89796 | 41 ft | 6 kts | 2° |
| 2026-05-06 00:03 | 22.30925 | 113.89805 | 42 ft | 6 kts | 12° |
| 2026-05-06 00:03 | 22.30964 | 113.89801 | 42 ft | 6 kts | 341° |
| 2026-05-06 00:03 | 22.31010 | 113.89784 | 34 ft | 10 kts | 340° |
| 2026-05-06 00:04 | 22.31070 | 113.89769 | 34 ft | 7 kts | 13° |
| 2026-05-06 00:04 | 22.31102 | 113.89819 | 35 ft | 12 kts | 70° |
| 2026-05-06 00:04 | 22.31149 | 113.89968 | 35 ft | 32 kts | 72° |
| 2026-05-06 00:04 | 22.31265 | 113.90328 | 35 ft | 80 kts | 71° |
| 2026-05-06 00:05 | 22.31899 | 113.92307 | 54 ft | 188 kts | 71° |
| 2026-05-06 00:05 | 22.32330 | 113.93635 | 574 ft | 185 kts | 71° |
| 2026-05-06 00:05 | 22.32774 | 113.94957 | 1101 ft | 190 kts | 70° |
| 2026-05-06 00:06 | 22.33209 | 113.96329 | 1434 ft | 198 kts | 73° |
| 2026-05-06 00:06 | 22.33559 | 113.97840 | 1627 ft | 214 kts | 81° |
| 2026-05-06 00:06 | 22.33717 | 113.99456 | 2122 ft | 217 kts | 86° |
| 2026-05-06 00:06 | 22.33850 | 114.01060 | 2751 ft | 213 kts | 81° |
| 2026-05-06 00:07 | 22.34129 | 114.02698 | 3001 ft | 228 kts | 77° |
| 2026-05-06 00:07 | 22.34265 | 114.04811 | 3445 ft | 242 kts | 99° |
| 2026-05-06 00:07 | 22.32118 | 114.08081 | 4453 ft | 265 kts | 150° |
| 2026-05-06 00:07 | 22.25204 | 114.08797 | 6676 ft | 280 kts | 180° |
| 2026-05-06 00:08 | 22.23317 | 114.08747 | 6737 ft | 272 kts | 180° |
| 2026-05-06 00:08 | 22.21422 | 114.08693 | 6890 ft | 273 kts | 180° |
| 2026-05-06 00:08 | 22.19501 | 114.08677 | 7021 ft | 276 kts | 175° |
| 2026-05-06 00:08 | 22.17677 | 114.09302 | 7119 ft | 279 kts | 145° |
| 2026-05-06 00:09 | 22.16367 | 114.10818 | 7251 ft | 279 kts | 118° |
| 2026-05-06 00:09 | 22.15787 | 114.12800 | 7399 ft | 286 kts | 97° |
| 2026-05-06 00:09 | 22.15665 | 114.14951 | 7546 ft | 288 kts | 94° |
| 2026-05-06 00:09 | 22.17289 | 114.19730 | 8351 ft | 300 kts | 31° |
| 2026-05-06 00:10 | 22.24435 | 114.19747 | 10317 ft | 301 kts | 347° |
| 2026-05-06 00:10 | 22.26543 | 114.19277 | 10501 ft | 319 kts | 345° |
| 2026-05-06 00:10 | 22.28775 | 114.18759 | 10697 ft | 337 kts | 345° |
| 2026-05-06 00:10 | 22.31129 | 114.18223 | 10857 ft | 356 kts | 346° |
| 2026-05-06 00:11 | 22.33616 | 114.17671 | 11062 ft | 372 kts | 346° |
| 2026-05-06 00:11 | 22.36186 | 114.17114 | 11500 ft | 381 kts | 346° |
| 2026-05-06 00:11 | 22.38803 | 114.16558 | 12120 ft | 384 kts | 346° |
| 2026-05-06 00:11 | 22.41434 | 114.16007 | 12794 ft | 387 kts | 346° |
| 2026-05-06 00:12 | 22.44089 | 114.15451 | 13436 ft | 390 kts | 346° |
| 2026-05-06 00:12 | 22.46769 | 114.14889 | 14025 ft | 394 kts | 346° |
| 2026-05-06 00:12 | 22.49471 | 114.14318 | 14575 ft | 398 kts | 346° |
| 2026-05-06 00:12 | 22.52199 | 114.13732 | 15135 ft | 401 kts | 345° |
| 2026-05-06 00:13 | 22.54894 | 114.12910 | 15705 ft | 403 kts | 338° |
| 2026-05-06 00:13 | 22.57494 | 114.11756 | 16196 ft | 406 kts | 332° |
| 2026-05-06 00:13 | 22.60055 | 114.10425 | 16658 ft | 411 kts | 332° |
| 2026-05-06 00:13 | 22.62616 | 114.09088 | 17163 ft | 415 kts | 332° |
| 2026-05-06 00:14 | 22.65224 | 114.07729 | 17719 ft | 417 kts | 333° |
| 2026-05-06 00:14 | 22.67846 | 114.06372 | 18243 ft | 420 kts | 333° |
| 2026-05-06 00:14 | 22.70492 | 114.05011 | 18718 ft | 423 kts | 333° |
| 2026-05-06 00:14 | 22.73155 | 114.03645 | 19204 ft | 426 kts | 333° |
| 2026-05-06 00:15 | 22.75847 | 114.02264 | 19707 ft | 428 kts | 333° |
| 2026-05-06 00:15 | 22.78550 | 114.00878 | 20174 ft | 430 kts | 333° |
| 2026-05-06 00:15 | 22.81266 | 113.99484 | 20621 ft | 433 kts | 333° |
| 2026-05-06 00:15 | 22.84010 | 113.98075 | 21048 ft | 437 kts | 333° |
| 2026-05-06 00:16 | 22.86764 | 113.96660 | 21473 ft | 439 kts | 333° |
| 2026-05-06 00:16 | 22.89524 | 113.95240 | 21919 ft | 441 kts | 333° |
| 2026-05-06 00:16 | 22.92309 | 113.93800 | 22350 ft | 444 kts | 333° |
| 2026-05-06 00:16 | 22.95104 | 113.92345 | 22764 ft | 446 kts | 333° |
| 2026-05-06 00:17 | 22.97912 | 113.90882 | 23166 ft | 449 kts | 333° |
| 2026-05-06 00:17 | 23.00697 | 113.89430 | 23565 ft | 451 kts | 333° |
| 2026-05-06 00:17 | 23.03531 | 113.87954 | 23931 ft | 454 kts | 333° |
| 2026-05-06 00:17 | 23.06371 | 113.86431 | 24285 ft | 456 kts | 329° |
| 2026-05-06 00:18 | 23.09066 | 113.84610 | 24643 ft | 457 kts | 323° |
| 2026-05-06 00:18 | 23.11602 | 113.82522 | 25026 ft | 458 kts | 318° |
| 2026-05-06 00:18 | 23.13943 | 113.80174 | 25381 ft | 458 kts | 315° |
| 2026-05-06 00:18 | 23.16235 | 113.77751 | 25702 ft | 461 kts | 314° |
| 2026-05-06 00:19 | 23.18530 | 113.75307 | 26040 ft | 462 kts | 314° |
| 2026-05-06 00:19 | 23.20840 | 113.72858 | 26366 ft | 464 kts | 315° |
| 2026-05-06 00:19 | 23.23164 | 113.70403 | 26662 ft | 467 kts | 315° |
| 2026-05-06 00:19 | 23.25503 | 113.67947 | 26971 ft | 469 kts | 315° |
| 2026-05-06 00:20 | 23.27857 | 113.65475 | 27258 ft | 471 kts | 315° |
| 2026-05-06 00:20 | 23.30214 | 113.63000 | 27578 ft | 472 kts | 315° |
| 2026-05-06 00:20 | 23.32587 | 113.60509 | 27879 ft | 474 kts | 315° |
| 2026-05-06 00:20 | 23.34930 | 113.58048 | 28158 ft | 476 kts | 315° |
| 2026-05-06 00:21 | 23.37344 | 113.55512 | 28453 ft | 477 kts | 315° |
| 2026-05-06 00:21 | 23.39703 | 113.53033 | 28721 ft | 479 kts | 315° |
| 2026-05-06 00:21 | 23.42102 | 113.50510 | 28966 ft | 480 kts | 315° |
| 2026-05-06 00:21 | 23.44508 | 113.47979 | 29200 ft | 481 kts | 315° |
| 2026-05-06 00:22 | 23.46919 | 113.45440 | 29428 ft | 483 kts | 315° |
| 2026-05-06 00:22 | 23.49341 | 113.42888 | 29640 ft | 484 kts | 315° |
| 2026-05-06 00:22 | 23.51764 | 113.40333 | 29873 ft | 485 kts | 315° |
| 2026-05-06 00:22 | 23.54188 | 113.37775 | 30174 ft | 484 kts | 315° |
| 2026-05-06 00:23 | 23.56591 | 113.35203 | 30499 ft | 482 kts | 314° |
| 2026-05-06 00:23 | 23.58973 | 113.32632 | 30867 ft | 480 kts | 314° |
| 2026-05-06 00:23 | 23.61337 | 113.30083 | 31247 ft | 477 kts | 314° |
| 2026-05-06 00:23 | 23.63637 | 113.27550 | 31562 ft | 475 kts | 310° |
| 2026-05-06 00:24 | 23.65713 | 113.24763 | 31873 ft | 472 kts | 304° |
| 2026-05-06 00:24 | 23.69170 | 113.18645 | 31969 ft | 473 kts | 295° |
| 2026-05-06 00:25 | 23.71821 | 113.12111 | 31987 ft | 469 kts | 293° |
| 2026-05-06 00:25 | 23.74464 | 113.05608 | 31996 ft | 469 kts | 294° |
| 2026-05-06 00:26 | 23.77889 | 112.99642 | 32017 ft | 468 kts | 315° |
| 2026-05-06 00:26 | 23.80464 | 112.97435 | 31976 ft | 473 kts | 326° |
| 2026-05-06 00:26 | 23.83426 | 112.95842 | 31997 ft | 479 kts | 339° |
| 2026-05-06 00:27 | 23.89894 | 112.93913 | 31979 ft | 483 kts | 341° |
| 2026-05-06 00:27 | 23.96351 | 112.91819 | 31993 ft | 485 kts | 340° |
| 2026-05-06 00:28 | 24.02810 | 112.89658 | 31994 ft | 486 kts | 340° |
| 2026-05-06 00:28 | 24.09282 | 112.87500 | 31992 ft | 486 kts | 340° |
| 2026-05-06 00:29 | 24.15758 | 112.85349 | 31998 ft | 486 kts | 340° |
| 2026-05-06 00:29 | 24.22173 | 112.83223 | 31976 ft | 484 kts | 340° |
| 2026-05-06 00:30 | 24.28621 | 112.81084 | 31974 ft | 483 kts | 340° |
| 2026-05-06 00:30 | 24.35045 | 112.78947 | 31985 ft | 483 kts | 340° |
| 2026-05-06 00:31 | 24.41472 | 112.76801 | 31985 ft | 479 kts | 338° |
| 2026-05-06 00:31 | 24.44436 | 112.75197 | 31977 ft | 473 kts | 321° |
| 2026-05-06 00:31 | 24.46809 | 112.72740 | 31980 ft | 469 kts | 306° |
| 2026-05-06 00:32 | 24.49815 | 112.66430 | 31973 ft | 469 kts | 285° |
| 2026-05-06 00:32 | 24.50691 | 112.59358 | 31975 ft | 470 kts | 275° |
| 2026-05-06 00:33 | 24.51249 | 112.52181 | 31983 ft | 473 kts | 275° |
| 2026-05-06 00:33 | 24.51864 | 112.44970 | 31986 ft | 475 kts | 276° |
| 2026-05-06 00:34 | 24.52542 | 112.37749 | 31983 ft | 475 kts | 276° |
| 2026-05-06 00:34 | 24.53232 | 112.30575 | 31981 ft | 474 kts | 276° |
| 2026-05-06 00:35 | 24.53923 | 112.23387 | 31980 ft | 473 kts | 276° |
| 2026-05-06 00:35 | 24.54607 | 112.16219 | 31973 ft | 471 kts | 276° |
| 2026-05-06 00:36 | 24.55279 | 112.09068 | 31963 ft | 470 kts | 276° |
| 2026-05-06 00:36 | 24.55945 | 112.01938 | 31969 ft | 469 kts | 276° |
| 2026-05-06 00:37 | 24.56612 | 111.94814 | 31972 ft | 469 kts | 276° |
| 2026-05-06 00:37 | 24.57275 | 111.87688 | 31971 ft | 469 kts | 276° |
| 2026-05-06 00:38 | 24.57934 | 111.80584 | 31982 ft | 470 kts | 276° |
| 2026-05-06 00:38 | 24.58592 | 111.73421 | 31974 ft | 472 kts | 276° |
| 2026-05-06 00:39 | 24.59249 | 111.66244 | 31979 ft | 472 kts | 276° |
| 2026-05-06 00:39 | 24.59903 | 111.59048 | 31966 ft | 473 kts | 276° |
| 2026-05-06 00:40 | 24.60553 | 111.51842 | 31960 ft | 473 kts | 276° |
| 2026-05-06 00:40 | 24.61201 | 111.44650 | 31966 ft | 473 kts | 276° |
| 2026-05-06 00:41 | 24.61845 | 111.37463 | 31965 ft | 472 kts | 276° |
| 2026-05-06 00:41 | 24.62480 | 111.30322 | 31966 ft | 471 kts | 276° |
| 2026-05-06 00:42 | 24.63111 | 111.23141 | 31969 ft | 471 kts | 276° |
| 2026-05-06 00:42 | 24.63733 | 111.15977 | 31977 ft | 471 kts | 276° |
| 2026-05-06 00:43 | 24.64352 | 111.08791 | 31969 ft | 472 kts | 275° |
| 2026-05-06 00:43 | 24.64965 | 111.01641 | 31960 ft | 472 kts | 275° |
| 2026-05-06 00:44 | 24.65581 | 110.94461 | 31969 ft | 472 kts | 275° |
| 2026-05-06 00:44 | 24.66192 | 110.87272 | 31961 ft | 472 kts | 275° |
| 2026-05-06 00:45 | 24.67246 | 110.80174 | 31956 ft | 471 kts | 290° |
| 2026-05-06 00:45 | 24.70483 | 110.73921 | 31967 ft | 474 kts | 309° |
| 2026-05-06 00:46 | 24.75228 | 110.68875 | 31964 ft | 476 kts | 315° |
| 2026-05-06 00:46 | 24.80084 | 110.63894 | 31965 ft | 478 kts | 314° |
| 2026-05-06 00:47 | 24.84904 | 110.58845 | 31968 ft | 479 kts | 314° |
| 2026-05-06 00:47 | 24.89715 | 110.53758 | 31965 ft | 480 kts | 314° |
| 2026-05-06 00:48 | 24.93720 | 110.49519 | 31966 ft | 480 kts | 314° |
| 2026-05-06 00:48 | 24.98525 | 110.44429 | 31963 ft | 479 kts | 314° |
| 2026-05-06 00:49 | 25.04115 | 110.38520 | 31963 ft | 478 kts | 314° |
| 2026-05-06 00:49 | 25.08142 | 110.34271 | 31962 ft | 477 kts | 314° |
| 2026-05-06 00:50 | 25.12901 | 110.29244 | 31965 ft | 476 kts | 314° |
| 2026-05-06 00:50 | 25.17681 | 110.24188 | 31961 ft | 476 kts | 314° |
| 2026-05-06 00:51 | 25.22458 | 110.19135 | 31964 ft | 475 kts | 314° |
| 2026-05-06 00:51 | 25.27267 | 110.14111 | 31964 ft | 476 kts | 314° |
| 2026-05-06 00:52 | 25.32071 | 110.09093 | 31963 ft | 475 kts | 314° |
| 2026-05-06 00:52 | 25.36876 | 110.04055 | 31960 ft | 475 kts | 314° |
| 2026-05-06 00:53 | 25.41637 | 109.99060 | 31967 ft | 475 kts | 314° |
| 2026-05-06 00:53 | 25.46439 | 109.94010 | 31966 ft | 476 kts | 314° |
| 2026-05-06 00:54 | 25.51237 | 109.88958 | 31955 ft | 476 kts | 314° |
| 2026-05-06 00:54 | 25.56031 | 109.83908 | 31966 ft | 476 kts | 314° |
| 2026-05-06 00:55 | 25.60826 | 109.78851 | 31963 ft | 476 kts | 314° |
| 2026-05-06 00:55 | 25.65613 | 109.73792 | 31968 ft | 475 kts | 314° |
| 2026-05-06 00:56 | 25.70405 | 109.68724 | 31962 ft | 476 kts | 314° |
| 2026-05-06 00:56 | 25.75064 | 109.63595 | 31953 ft | 473 kts | 307° |
| 2026-05-06 00:57 | 25.78494 | 109.57419 | 31964 ft | 470 kts | 294° |
| 2026-05-06 00:57 | 25.80565 | 109.50567 | 31967 ft | 468 kts | 285° |
| 2026-05-06 00:58 | 25.82328 | 109.43595 | 31966 ft | 469 kts | 285° |
| 2026-05-06 00:58 | 25.84128 | 109.36618 | 31957 ft | 470 kts | 285° |
| 2026-05-06 00:59 | 25.85952 | 109.29648 | 31968 ft | 471 kts | 286° |
| 2026-05-06 00:59 | 25.87787 | 109.22659 | 31952 ft | 472 kts | 286° |
| 2026-05-06 01:00 | 25.89619 | 109.15664 | 31959 ft | 472 kts | 285° |
| 2026-05-06 01:00 | 25.91434 | 109.08697 | 31954 ft | 473 kts | 285° |
| 2026-05-06 01:01 | 25.93263 | 109.01686 | 31945 ft | 473 kts | 285° |
| 2026-05-06 01:01 | 25.95116 | 108.94685 | 31950 ft | 472 kts | 285° |
| 2026-05-06 01:02 | 25.96965 | 108.87680 | 31945 ft | 472 kts | 285° |
| 2026-05-06 01:02 | 25.98806 | 108.80684 | 31953 ft | 471 kts | 285° |
| 2026-05-06 01:03 | 26.00643 | 108.73684 | 31959 ft | 472 kts | 285° |
| 2026-05-06 01:03 | 26.02504 | 108.66680 | 31962 ft | 472 kts | 286° |
| 2026-05-06 01:04 | 26.04371 | 108.59712 | 31955 ft | 473 kts | 286° |
| 2026-05-06 01:04 | 26.06246 | 108.52702 | 31953 ft | 473 kts | 285° |
| 2026-05-06 01:05 | 26.08110 | 108.45696 | 31946 ft | 472 kts | 285° |
| 2026-05-06 01:05 | 26.09987 | 108.39096 | 31950 ft | 472 kts | 290° |
| 2026-05-06 01:06 | 26.13237 | 108.31407 | 31945 ft | 472 kts | 295° |
| 2026-05-06 01:06 | 26.15655 | 108.25909 | 31951 ft | 472 kts | 294° |
| 2026-05-06 01:07 | 26.18521 | 108.19310 | 31951 ft | 473 kts | 294° |
| 2026-05-06 01:07 | 26.21365 | 108.12710 | 31956 ft | 474 kts | 294° |
| 2026-05-06 01:08 | 26.24211 | 108.06091 | 31944 ft | 474 kts | 294° |
| 2026-05-06 01:08 | 26.27063 | 107.99453 | 31946 ft | 474 kts | 294° |
| 2026-05-06 01:09 | 26.29888 | 107.92872 | 31937 ft | 473 kts | 294° |
| 2026-05-06 01:09 | 26.32724 | 107.86243 | 31927 ft | 474 kts | 294° |
| 2026-05-06 01:10 | 26.35561 | 107.79607 | 31934 ft | 474 kts | 294° |
| 2026-05-06 01:10 | 26.38394 | 107.72964 | 31952 ft | 474 kts | 294° |
| 2026-05-06 01:11 | 26.41231 | 107.66312 | 31949 ft | 475 kts | 294° |
| 2026-05-06 01:11 | 26.44067 | 107.59652 | 31948 ft | 475 kts | 294° |
| 2026-05-06 01:12 | 26.46896 | 107.52995 | 31929 ft | 474 kts | 294° |
| 2026-05-06 01:12 | 26.49710 | 107.46402 | 31936 ft | 473 kts | 294° |
| 2026-05-06 01:13 | 26.52554 | 107.39783 | 31931 ft | 472 kts | 294° |
| 2026-05-06 01:13 | 26.55386 | 107.33155 | 31917 ft | 472 kts | 294° |
| 2026-05-06 01:14 | 26.59562 | 107.23215 | 31914 ft | 472 kts | 293° |
| 2026-05-06 01:14 | 26.62347 | 107.16578 | 31903 ft | 472 kts | 294° |
| 2026-05-06 01:15 | 26.65142 | 107.09950 | 31902 ft | 472 kts | 294° |
| 2026-05-06 01:15 | 26.67969 | 107.03323 | 31909 ft | 472 kts | 294° |
| 2026-05-06 01:16 | 26.70792 | 106.96684 | 31909 ft | 473 kts | 294° |
| 2026-05-06 01:16 | 26.73591 | 106.90078 | 31901 ft | 474 kts | 294° |
| 2026-05-06 01:17 | 26.76418 | 106.83423 | 31904 ft | 474 kts | 295° |
| 2026-05-06 01:17 | 26.80055 | 106.77265 | 31909 ft | 476 kts | 307° |
| 2026-05-06 01:18 | 26.84712 | 106.71944 | 31914 ft | 479 kts | 316° |
| 2026-05-06 01:18 | 26.89765 | 106.67076 | 31906 ft | 479 kts | 316° |
| 2026-05-06 01:19 | 26.94816 | 106.62198 | 31908 ft | 480 kts | 316° |
| 2026-05-06 01:19 | 26.99852 | 106.57263 | 31910 ft | 481 kts | 316° |
| 2026-05-06 01:20 | 27.04855 | 106.52339 | 31909 ft | 482 kts | 316° |
| 2026-05-06 01:20 | 27.09896 | 106.47376 | 31907 ft | 482 kts | 316° |
| 2026-05-06 01:21 | 27.14932 | 106.42406 | 31908 ft | 482 kts | 316° |
| 2026-05-06 01:21 | 27.19971 | 106.37434 | 31907 ft | 482 kts | 316° |
| 2026-05-06 01:22 | 27.25043 | 106.32486 | 31893 ft | 482 kts | 316° |
| 2026-05-06 01:22 | 27.30129 | 106.27556 | 31895 ft | 482 kts | 316° |
| 2026-05-06 01:23 | 27.35179 | 106.22643 | 31884 ft | 482 kts | 316° |
| 2026-05-06 01:23 | 27.40251 | 106.17695 | 31892 ft | 483 kts | 316° |
| 2026-05-06 01:24 | 27.45328 | 106.12736 | 31884 ft | 484 kts | 316° |
| 2026-05-06 01:24 | 27.50422 | 106.07756 | 31879 ft | 485 kts | 316° |
| 2026-05-06 01:25 | 27.55519 | 106.02765 | 31880 ft | 486 kts | 316° |
| 2026-05-06 01:25 | 27.60587 | 105.97797 | 31871 ft | 486 kts | 316° |
| 2026-05-06 01:26 | 27.65688 | 105.92788 | 31860 ft | 486 kts | 316° |
| 2026-05-06 01:26 | 27.70644 | 105.87648 | 31861 ft | 481 kts | 307° |
| 2026-05-06 01:27 | 27.74218 | 105.81340 | 31865 ft | 475 kts | 292° |
| 2026-05-06 01:27 | 27.76335 | 105.74322 | 31835 ft | 472 kts | 284° |
| 2026-05-06 01:28 | 27.78254 | 105.67225 | 31855 ft | 472 kts | 285° |
| 2026-05-06 01:28 | 27.80332 | 105.60184 | 31832 ft | 473 kts | 290° |
| 2026-05-06 01:29 | 27.82982 | 105.53372 | 31832 ft | 474 kts | 292° |
| 2026-05-06 01:29 | 27.85626 | 105.46615 | 31849 ft | 474 kts | 291° |
| 2026-05-06 01:30 | 27.88265 | 105.39778 | 31847 ft | 474 kts | 291° |
| 2026-05-06 01:30 | 27.91157 | 105.33086 | 31829 ft | 474 kts | 295° |
| 2026-05-06 01:31 | 27.94144 | 105.26460 | 31844 ft | 472 kts | 294° |
| 2026-05-06 01:31 | 27.97323 | 105.19980 | 31822 ft | 473 kts | 304° |
| 2026-05-06 01:32 | 28.01918 | 105.14599 | 31840 ft | 479 kts | 318° |
| 2026-05-06 01:32 | 28.07553 | 105.10497 | 31818 ft | 484 kts | 325° |
| 2026-05-06 01:33 | 28.13334 | 105.06578 | 31828 ft | 484 kts | 325° |
| 2026-05-06 01:33 | 28.19080 | 105.02605 | 31824 ft | 484 kts | 324° |
| 2026-05-06 01:34 | 28.24811 | 104.98592 | 31819 ft | 484 kts | 324° |
| 2026-05-06 01:34 | 28.30536 | 104.94572 | 31810 ft | 483 kts | 324° |
| 2026-05-06 01:35 | 28.36201 | 104.90599 | 31820 ft | 481 kts | 324° |
| 2026-05-06 01:35 | 28.41893 | 104.86598 | 31806 ft | 481 kts | 324° |
| 2026-05-06 01:36 | 28.47599 | 104.82613 | 31808 ft | 480 kts | 324° |
| 2026-05-06 01:36 | 28.53293 | 104.78625 | 31799 ft | 480 kts | 324° |
| 2026-05-06 01:37 | 28.58957 | 104.74653 | 31790 ft | 481 kts | 324° |
| 2026-05-06 01:37 | 28.64650 | 104.70645 | 31793 ft | 481 kts | 324° |
| 2026-05-06 01:38 | 28.70341 | 104.66641 | 31782 ft | 481 kts | 324° |
| 2026-05-06 01:38 | 28.76033 | 104.62630 | 31788 ft | 481 kts | 324° |
| 2026-05-06 01:39 | 28.81725 | 104.58616 | 31781 ft | 480 kts | 324° |
| 2026-05-06 01:39 | 28.87406 | 104.54599 | 31788 ft | 480 kts | 324° |
| 2026-05-06 01:40 | 28.93083 | 104.50567 | 31778 ft | 480 kts | 324° |
| 2026-05-06 01:40 | 28.98750 | 104.46534 | 31778 ft | 480 kts | 324° |
| 2026-05-06 01:41 | 29.09579 | 104.38807 | 31778 ft | 483 kts | 324° |
| 2026-05-06 01:42 | 29.15275 | 104.34737 | 31775 ft | 482 kts | 324° |
| 2026-05-06 01:42 | 29.20979 | 104.30661 | 31779 ft | 483 kts | 324° |
| 2026-05-06 01:43 | 29.27085 | 104.27415 | 31767 ft | 493 kts | 343° |
| 2026-05-06 01:43 | 29.30500 | 104.26880 | 31777 ft | 500 kts | 354° |
| 2026-05-06 01:43 | 29.33991 | 104.27106 | 31768 ft | 506 kts | 5° |
| 2026-05-06 01:44 | 29.40979 | 104.28401 | 31767 ft | 509 kts | 5° |
| 2026-05-06 01:44 | 29.47938 | 104.29695 | 31760 ft | 510 kts | 5° |
| 2026-05-06 01:45 | 29.54976 | 104.30919 | 31765 ft | 511 kts | 5° |
| 2026-05-06 01:45 | 29.62023 | 104.32115 | 31755 ft | 512 kts | 5° |
| 2026-05-06 01:46 | 29.69083 | 104.33314 | 31748 ft | 512 kts | 5° |
| 2026-05-06 01:46 | 29.76112 | 104.34516 | 31741 ft | 510 kts | 5° |
| 2026-05-06 01:47 | 29.83131 | 104.35714 | 31754 ft | 509 kts | 5° |
| 2026-05-06 01:47 | 29.90152 | 104.36912 | 31752 ft | 509 kts | 5° |
| 2026-05-06 01:48 | 29.97158 | 104.38118 | 31748 ft | 509 kts | 5° |
| 2026-05-06 01:48 | 30.04126 | 104.39316 | 31757 ft | 509 kts | 5° |
| 2026-05-06 01:49 | 30.11175 | 104.40531 | 31751 ft | 509 kts | 5° |
| 2026-05-06 01:49 | 30.18149 | 104.41736 | 31751 ft | 510 kts | 5° |
| 2026-05-06 01:50 | 30.25165 | 104.42962 | 31746 ft | 510 kts | 5° |
| 2026-05-06 01:50 | 30.32190 | 104.44192 | 31751 ft | 510 kts | 5° |
| 2026-05-06 01:51 | 30.39203 | 104.45423 | 31752 ft | 510 kts | 5° |
| 2026-05-06 01:51 | 30.46221 | 104.46652 | 31750 ft | 510 kts | 5° |
| 2026-05-06 01:52 | 30.53240 | 104.47887 | 31748 ft | 510 kts | 5° |
| 2026-05-06 01:52 | 30.60259 | 104.48409 | 31746 ft | 502 kts | 351° |
| 2026-05-06 01:53 | 30.67055 | 104.46930 | 31747 ft | 493 kts | 337° |
| 2026-05-06 01:53 | 30.73484 | 104.44326 | 31757 ft | 493 kts | 337° |
| 2026-05-06 01:54 | 30.80004 | 104.41767 | 31746 ft | 494 kts | 338° |
| 2026-05-06 01:54 | 30.86628 | 104.39556 | 31743 ft | 499 kts | 345° |
| 2026-05-06 01:55 | 30.93560 | 104.38700 | 31752 ft | 504 kts | 355° |
| 2026-05-06 01:55 | 31.00589 | 104.38588 | 31755 ft | 505 kts | 355° |
| 2026-05-06 01:56 | 31.07630 | 104.38459 | 31744 ft | 505 kts | 355° |
| 2026-05-06 01:56 | 31.14619 | 104.38283 | 31751 ft | 505 kts | 355° |
| 2026-05-06 01:57 | 31.21645 | 104.38088 | 31750 ft | 505 kts | 355° |
| 2026-05-06 01:57 | 31.28677 | 104.37850 | 31748 ft | 505 kts | 353° |
| 2026-05-06 01:58 | 31.35688 | 104.37427 | 31755 ft | 504 kts | 353° |
| 2026-05-06 01:58 | 31.42692 | 104.36986 | 31757 ft | 504 kts | 353° |
| 2026-05-06 01:59 | 31.49705 | 104.36571 | 31759 ft | 504 kts | 353° |
| 2026-05-06 01:59 | 31.56710 | 104.36164 | 31759 ft | 505 kts | 353° |
| 2026-05-06 02:00 | 31.63740 | 104.35759 | 31761 ft | 506 kts | 353° |
| 2026-05-06 02:00 | 31.70733 | 104.35354 | 31765 ft | 507 kts | 353° |
| 2026-05-06 02:01 | 31.77774 | 104.34942 | 31769 ft | 507 kts | 353° |
| 2026-05-06 02:01 | 31.84822 | 104.34573 | 31757 ft | 506 kts | 354° |
| 2026-05-06 02:02 | 31.91845 | 104.34229 | 31770 ft | 505 kts | 354° |
| 2026-05-06 02:02 | 31.98883 | 104.33874 | 31772 ft | 505 kts | 354° |
| 2026-05-06 02:03 | 32.05895 | 104.33513 | 31784 ft | 505 kts | 354° |
| 2026-05-06 02:03 | 32.12873 | 104.33149 | 31771 ft | 505 kts | 354° |
| 2026-05-06 02:04 | 32.19889 | 104.32787 | 31789 ft | 505 kts | 354° |
| 2026-05-06 02:04 | 32.26914 | 104.32429 | 31792 ft | 505 kts | 353° |
| 2026-05-06 02:05 | 32.33936 | 104.32065 | 31793 ft | 505 kts | 353° |
| 2026-05-06 02:05 | 32.40940 | 104.31693 | 31793 ft | 503 kts | 353° |
| 2026-05-06 02:06 | 32.47936 | 104.31337 | 31802 ft | 504 kts | 354° |
| 2026-05-06 02:06 | 32.54948 | 104.31002 | 31792 ft | 505 kts | 354° |
| 2026-05-06 02:07 | 32.61976 | 104.30649 | 31806 ft | 506 kts | 353° |
| 2026-05-06 02:07 | 32.69009 | 104.30314 | 31803 ft | 506 kts | 353° |
| 2026-05-06 02:08 | 32.75988 | 104.29983 | 31823 ft | 504 kts | 353° |
| 2026-05-06 02:08 | 32.83002 | 104.29647 | 31819 ft | 503 kts | 353° |
| 2026-05-06 02:09 | 32.89987 | 104.29307 | 31823 ft | 502 kts | 353° |
| 2026-05-06 02:09 | 32.96965 | 104.28972 | 31835 ft | 500 kts | 353° |
| 2026-05-06 02:10 | 33.03923 | 104.28639 | 31849 ft | 500 kts | 353° |
| 2026-05-06 02:10 | 33.10868 | 104.28310 | 31847 ft | 499 kts | 353° |
| 2026-05-06 02:11 | 33.17753 | 104.27966 | 31857 ft | 499 kts | 353° |
| 2026-05-06 02:11 | 33.24717 | 104.27628 | 31870 ft | 502 kts | 353° |
| 2026-05-06 02:12 | 33.31694 | 104.27212 | 31858 ft | 500 kts | 348° |
| 2026-05-06 02:12 | 33.38341 | 104.25139 | 31871 ft | 490 kts | 333° |
| 2026-05-06 02:13 | 33.44286 | 104.21392 | 31895 ft | 480 kts | 325° |
| 2026-05-06 02:13 | 33.50029 | 104.17335 | 31882 ft | 479 kts | 326° |
| 2026-05-06 02:14 | 33.55869 | 104.13466 | 31920 ft | 483 kts | 332° |
| 2026-05-06 02:14 | 33.62394 | 104.11285 | 31939 ft | 496 kts | 347° |
| 2026-05-06 02:15 | 33.69372 | 104.11008 | 31917 ft | 504 kts | 356° |
| 2026-05-06 02:15 | 33.76397 | 104.11118 | 31944 ft | 505 kts | 356° |
| 2026-05-06 02:16 | 33.83425 | 104.11190 | 31946 ft | 504 kts | 355° |
| 2026-05-06 02:16 | 33.90425 | 104.11212 | 31960 ft | 501 kts | 355° |
| 2026-05-06 02:17 | 33.97418 | 104.11208 | 31964 ft | 502 kts | 355° |
| 2026-05-06 02:17 | 34.04356 | 104.11203 | 31966 ft | 500 kts | 355° |
| 2026-05-06 02:18 | 34.11312 | 104.11198 | 31960 ft | 500 kts | 355° |
| 2026-05-06 02:18 | 34.18262 | 104.11195 | 31994 ft | 500 kts | 355° |
| 2026-05-06 02:19 | 34.25213 | 104.11193 | 31996 ft | 500 kts | 355° |
| 2026-05-06 02:19 | 34.32187 | 104.11193 | 32023 ft | 501 kts | 355° |
| 2026-05-06 02:20 | 34.41497 | 104.11195 | 32037 ft | 503 kts | 355° |
| 2026-05-06 02:21 | 34.48512 | 104.11197 | 32037 ft | 504 kts | 355° |
| 2026-05-06 02:21 | 34.55539 | 104.11199 | 32038 ft | 504 kts | 355° |
| 2026-05-06 02:22 | 34.62554 | 104.11200 | 32072 ft | 504 kts | 355° |
| 2026-05-06 02:22 | 34.69563 | 104.11198 | 32086 ft | 504 kts | 355° |
| 2026-05-06 02:23 | 34.76583 | 104.11200 | 32094 ft | 504 kts | 355° |
| 2026-05-06 02:23 | 34.83591 | 104.11205 | 32095 ft | 504 kts | 355° |
| 2026-05-06 02:24 | 34.90616 | 104.11202 | 32128 ft | 505 kts | 355° |
| 2026-05-06 02:24 | 34.97648 | 104.11202 | 32111 ft | 505 kts | 355° |
| 2026-05-06 02:25 | 35.04672 | 104.11197 | 32137 ft | 505 kts | 355° |
| 2026-05-06 02:25 | 35.11707 | 104.11193 | 32150 ft | 506 kts | 355° |
| 2026-05-06 02:26 | 35.18765 | 104.11196 | 32152 ft | 508 kts | 355° |
| 2026-05-06 02:26 | 35.25844 | 104.11199 | 32164 ft | 509 kts | 355° |
| 2026-05-06 02:27 | 35.32934 | 104.11198 | 32168 ft | 509 kts | 355° |
| 2026-05-06 02:27 | 35.39978 | 104.11199 | 32179 ft | 510 kts | 355° |
| 2026-05-06 02:28 | 35.47129 | 104.11201 | 32178 ft | 510 kts | 355° |
| 2026-05-06 02:28 | 35.54185 | 104.11207 | 32189 ft | 510 kts | 355° |
| 2026-05-06 02:29 | 35.61291 | 104.11232 | 32192 ft | 510 kts | 355° |
| 2026-05-06 02:29 | 35.68399 | 104.11253 | 32190 ft | 510 kts | 355° |
| 2026-05-06 02:30 | 35.75501 | 104.11277 | 32207 ft | 510 kts | 355° |
| 2026-05-06 02:30 | 35.82602 | 104.11288 | 32214 ft | 509 kts | 354° |
| 2026-05-06 02:31 | 35.89641 | 104.10652 | 32218 ft | 506 kts | 349° |
| 2026-05-06 02:31 | 35.96658 | 104.09830 | 32217 ft | 507 kts | 349° |
| 2026-05-06 02:32 | 36.03687 | 104.09040 | 32225 ft | 508 kts | 350° |
| 2026-05-06 02:32 | 36.10729 | 104.08279 | 32218 ft | 508 kts | 350° |
| 2026-05-06 02:33 | 36.17726 | 104.07519 | 32224 ft | 507 kts | 350° |
| 2026-05-06 02:33 | 36.20095 | 104.07261 | 32221 ft | 507 kts | 350° |
| 2026-05-06 02:34 | 36.31756 | 104.05981 | 32237 ft | 506 kts | 349° |
| 2026-05-06 02:34 | 36.38775 | 104.05208 | 32236 ft | 507 kts | 349° |
| 2026-05-06 02:35 | 36.45808 | 104.04440 | 32223 ft | 507 kts | 349° |
| 2026-05-06 02:35 | 36.52842 | 104.03666 | 32224 ft | 507 kts | 349° |
| 2026-05-06 02:36 | 36.59556 | 104.01791 | 32235 ft | 485 kts | 324° |
| 2026-05-06 02:36 | 36.62251 | 103.99388 | 32257 ft | 474 kts | 312° |
| 2026-05-06 02:36 | 36.64451 | 103.96354 | 32238 ft | 468 kts | 300° |
| 2026-05-06 02:37 | 36.67589 | 103.89334 | 32233 ft | 465 kts | 293° |
| 2026-05-06 02:37 | 36.70568 | 103.82209 | 32242 ft | 469 kts | 294° |
| 2026-05-06 02:38 | 36.73663 | 103.74977 | 32239 ft | 471 kts | 294° |
| 2026-05-06 02:38 | 36.76746 | 103.67843 | 32243 ft | 469 kts | 294° |
| 2026-05-06 02:39 | 36.79836 | 103.60697 | 32237 ft | 467 kts | 294° |
| 2026-05-06 02:39 | 36.82908 | 103.53581 | 32232 ft | 465 kts | 294° |
| 2026-05-06 02:40 | 36.85967 | 103.46464 | 32238 ft | 464 kts | 294° |
| 2026-05-06 02:40 | 36.89005 | 103.39373 | 32235 ft | 463 kts | 294° |
| 2026-05-06 02:41 | 36.92043 | 103.32278 | 32239 ft | 463 kts | 294° |
| 2026-05-06 02:41 | 36.95232 | 103.25254 | 32223 ft | 466 kts | 297° |
| 2026-05-06 02:42 | 36.98701 | 103.18402 | 32236 ft | 467 kts | 298° |
| 2026-05-06 02:42 | 37.02168 | 103.11576 | 32247 ft | 468 kts | 298° |
| 2026-05-06 02:43 | 37.05634 | 103.04701 | 32242 ft | 465 kts | 298° |
| 2026-05-06 02:43 | 37.09063 | 102.97865 | 32226 ft | 461 kts | 298° |
| 2026-05-06 02:44 | 37.12451 | 102.91085 | 32236 ft | 457 kts | 298° |
| 2026-05-06 02:44 | 37.15816 | 102.84344 | 32242 ft | 455 kts | 298° |
| 2026-05-06 02:45 | 37.19170 | 102.77603 | 32229 ft | 455 kts | 298° |
| 2026-05-06 02:45 | 37.22522 | 102.70856 | 32238 ft | 456 kts | 298° |
| 2026-05-06 02:46 | 37.25881 | 102.64078 | 32235 ft | 458 kts | 298° |
| 2026-05-06 02:46 | 37.29248 | 102.57281 | 32236 ft | 459 kts | 298° |
| 2026-05-06 02:47 | 37.32594 | 102.50511 | 32223 ft | 459 kts | 298° |
| 2026-05-06 02:47 | 37.35516 | 102.43427 | 32230 ft | 454 kts | 289° |
| 2026-05-06 02:48 | 37.37471 | 102.35917 | 32233 ft | 450 kts | 282° |
| 2026-05-06 02:48 | 37.38948 | 102.28267 | 32228 ft | 450 kts | 282° |
| 2026-05-06 02:49 | 37.40436 | 102.20617 | 32229 ft | 450 kts | 282° |
| 2026-05-06 02:49 | 37.41940 | 102.12966 | 32239 ft | 450 kts | 282° |
| 2026-05-06 02:50 | 37.43447 | 102.05305 | 32223 ft | 452 kts | 282° |
| 2026-05-06 02:50 | 37.44938 | 101.97648 | 32236 ft | 449 kts | 282° |
| 2026-05-06 02:51 | 37.46407 | 101.90007 | 32232 ft | 449 kts | 282° |
| 2026-05-06 02:51 | 37.47864 | 101.82412 | 32227 ft | 448 kts | 282° |
| 2026-05-06 02:52 | 37.49324 | 101.74779 | 32212 ft | 448 kts | 282° |
| 2026-05-06 02:52 | 37.51212 | 101.67297 | 32230 ft | 450 kts | 290° |
| 2026-05-06 02:53 | 37.54017 | 101.60212 | 32228 ft | 453 kts | 295° |
| 2026-05-06 02:53 | 37.57030 | 101.53241 | 32233 ft | 453 kts | 295° |
| 2026-05-06 02:54 | 37.60027 | 101.46238 | 32221 ft | 453 kts | 295° |
| 2026-05-06 02:54 | 37.62997 | 101.39230 | 32218 ft | 453 kts | 295° |
| 2026-05-06 02:55 | 37.65949 | 101.32267 | 32215 ft | 452 kts | 295° |
| 2026-05-06 02:55 | 37.68904 | 101.25255 | 32202 ft | 452 kts | 295° |
| 2026-05-06 02:56 | 37.71852 | 101.18261 | 32194 ft | 451 kts | 295° |
| 2026-05-06 02:56 | 37.74795 | 101.11271 | 32208 ft | 450 kts | 295° |
| 2026-05-06 02:57 | 37.77728 | 101.04267 | 32192 ft | 449 kts | 295° |
| 2026-05-06 02:57 | 37.80642 | 100.97307 | 32226 ft | 448 kts | 295° |
| 2026-05-06 02:58 | 37.83563 | 100.90329 | 32205 ft | 450 kts | 295° |
| 2026-05-06 02:58 | 37.86636 | 100.83408 | 32215 ft | 452 kts | 296° |
| 2026-05-06 02:59 | 37.89759 | 100.76498 | 32216 ft | 452 kts | 296° |
| 2026-05-06 02:59 | 37.92836 | 100.69619 | 32189 ft | 450 kts | 296° |
| 2026-05-06 03:00 | 37.95902 | 100.62710 | 32203 ft | 449 kts | 296° |
| 2026-05-06 03:00 | 37.98957 | 100.55825 | 32197 ft | 447 kts | 296° |
| 2026-05-06 03:01 | 38.02001 | 100.48952 | 32196 ft | 446 kts | 296° |
| 2026-05-06 03:01 | 38.05029 | 100.42092 | 32219 ft | 445 kts | 295° |
| 2026-05-06 03:02 | 38.08040 | 100.35244 | 32218 ft | 444 kts | 296° |
| 2026-05-06 03:02 | 38.11047 | 100.28406 | 32214 ft | 443 kts | 296° |
| 2026-05-06 03:03 | 38.14042 | 100.21577 | 32220 ft | 442 kts | 295° |
| 2026-05-06 03:03 | 38.17011 | 100.14779 | 32211 ft | 444 kts | 295° |
| 2026-05-06 03:04 | 38.20013 | 100.07912 | 32214 ft | 444 kts | 295° |
| 2026-05-06 03:04 | 38.23004 | 100.01036 | 32215 ft | 445 kts | 295° |
| 2026-05-06 03:05 | 38.26001 | 99.94136 | 32218 ft | 446 kts | 295° |
| 2026-05-06 03:05 | 38.29004 | 99.87228 | 32200 ft | 445 kts | 296° |
| 2026-05-06 03:06 | 38.31991 | 99.80326 | 32211 ft | 444 kts | 295° |
| 2026-05-06 03:06 | 38.34970 | 99.73426 | 32215 ft | 444 kts | 295° |
| 2026-05-06 03:07 | 38.37938 | 99.66522 | 32220 ft | 444 kts | 295° |
| 2026-05-06 03:07 | 38.40404 | 99.60788 | 32216 ft | 444 kts | 295° |
| 2026-05-06 03:08 | 38.43370 | 99.53880 | 32219 ft | 444 kts | 295° |
| 2026-05-06 03:08 | 38.46332 | 99.46964 | 32220 ft | 444 kts | 295° |
| 2026-05-06 03:09 | 38.49300 | 99.40028 | 32221 ft | 446 kts | 295° |
| 2026-05-06 03:09 | 38.52268 | 99.33057 | 32190 ft | 447 kts | 295° |
| 2026-05-06 03:10 | 38.55210 | 99.26124 | 32220 ft | 446 kts | 295° |
| 2026-05-06 03:10 | 38.58166 | 99.19157 | 32193 ft | 446 kts | 295° |
| 2026-05-06 03:11 | 38.61125 | 99.12188 | 32200 ft | 446 kts | 295° |
| 2026-05-06 03:11 | 38.64076 | 99.05216 | 32192 ft | 446 kts | 295° |
| 2026-05-06 03:12 | 38.67015 | 98.98237 | 32198 ft | 446 kts | 295° |
| 2026-05-06 03:12 | 38.69957 | 98.91244 | 32199 ft | 446 kts | 295° |
| 2026-05-06 03:13 | 38.72901 | 98.84223 | 32198 ft | 447 kts | 295° |
| 2026-05-06 03:13 | 38.75831 | 98.77222 | 32211 ft | 444 kts | 295° |
| 2026-05-06 03:14 | 38.78737 | 98.70285 | 32187 ft | 440 kts | 295° |
| 2026-05-06 03:14 | 38.81613 | 98.63379 | 32193 ft | 438 kts | 295° |
| 2026-05-06 03:15 | 38.84457 | 98.56538 | 32197 ft | 438 kts | 295° |
| 2026-05-06 03:15 | 38.87317 | 98.49645 | 32212 ft | 438 kts | 295° |
| 2026-05-06 03:16 | 38.90182 | 98.42729 | 32211 ft | 438 kts | 295° |
| 2026-05-06 03:16 | 38.93043 | 98.35802 | 32211 ft | 439 kts | 295° |
| 2026-05-06 03:17 | 38.95909 | 98.28850 | 32189 ft | 441 kts | 295° |
| 2026-05-06 03:17 | 38.98772 | 98.21890 | 32200 ft | 440 kts | 295° |
| 2026-05-06 03:18 | 39.01630 | 98.14928 | 32199 ft | 440 kts | 295° |
| 2026-05-06 03:18 | 39.04471 | 98.07993 | 32201 ft | 441 kts | 295° |
| 2026-05-06 03:19 | 39.07320 | 98.01011 | 32210 ft | 440 kts | 295° |
| 2026-05-06 03:19 | 39.10167 | 97.94030 | 32182 ft | 440 kts | 295° |
| 2026-05-06 03:20 | 39.14420 | 97.83575 | 32190 ft | 438 kts | 295° |
| 2026-05-06 03:20 | 39.17241 | 97.76621 | 32194 ft | 439 kts | 294° |
| 2026-05-06 03:21 | 39.20059 | 97.69637 | 32194 ft | 439 kts | 294° |
| 2026-05-06 03:21 | 39.22867 | 97.62685 | 32195 ft | 439 kts | 294° |
| 2026-05-06 03:22 | 39.25713 | 97.55645 | 32193 ft | 439 kts | 294° |
| 2026-05-06 03:22 | 39.28519 | 97.48701 | 32198 ft | 439 kts | 294° |
| 2026-05-06 03:23 | 39.31342 | 97.41707 | 32186 ft | 439 kts | 294° |
| 2026-05-06 03:23 | 39.34157 | 97.34703 | 32216 ft | 439 kts | 294° |
| 2026-05-06 03:24 | 39.36972 | 97.27684 | 32193 ft | 439 kts | 294° |
| 2026-05-06 03:24 | 39.39777 | 97.20670 | 32190 ft | 440 kts | 294° |
| 2026-05-06 03:25 | 39.42582 | 97.13648 | 32196 ft | 439 kts | 294° |
| 2026-05-06 03:25 | 39.45382 | 97.06623 | 32186 ft | 438 kts | 294° |
| 2026-05-06 03:26 | 39.48179 | 96.99612 | 32189 ft | 438 kts | 294° |
| 2026-05-06 03:26 | 39.50992 | 96.92616 | 32189 ft | 438 kts | 294° |
| 2026-05-06 03:27 | 39.53791 | 96.85645 | 32189 ft | 438 kts | 294° |
| 2026-05-06 03:27 | 39.56597 | 96.78629 | 32206 ft | 438 kts | 294° |
| 2026-05-06 03:28 | 39.59394 | 96.71610 | 32186 ft | 438 kts | 294° |
| 2026-05-06 03:28 | 39.62195 | 96.64596 | 32196 ft | 438 kts | 294° |
| 2026-05-06 03:29 | 39.64979 | 96.57555 | 32195 ft | 438 kts | 294° |
| 2026-05-06 03:29 | 39.67750 | 96.50512 | 32190 ft | 438 kts | 294° |
| 2026-05-06 03:30 | 39.70516 | 96.43461 | 32193 ft | 438 kts | 294° |
| 2026-05-06 03:30 | 39.73272 | 96.36421 | 32192 ft | 437 kts | 293° |
| 2026-05-06 03:31 | 39.76004 | 96.29418 | 32190 ft | 437 kts | 294° |
| 2026-05-06 03:31 | 39.78756 | 96.22369 | 32188 ft | 437 kts | 293° |
| 2026-05-06 03:32 | 39.81502 | 96.15310 | 32181 ft | 437 kts | 293° |
| 2026-05-06 03:32 | 39.84244 | 96.08239 | 32183 ft | 437 kts | 293° |
| 2026-05-06 03:33 | 39.86977 | 96.01177 | 32185 ft | 436 kts | 293° |
| 2026-05-06 03:33 | 39.89704 | 95.94118 | 32189 ft | 435 kts | 293° |
| 2026-05-06 03:34 | 39.92419 | 95.87080 | 32192 ft | 435 kts | 293° |
| 2026-05-06 03:34 | 39.95122 | 95.80030 | 32199 ft | 435 kts | 293° |
| 2026-05-06 03:35 | 39.97831 | 95.72967 | 32196 ft | 436 kts | 293° |
| 2026-05-06 03:35 | 40.00541 | 95.65870 | 32196 ft | 437 kts | 293° |
| 2026-05-06 03:36 | 40.03255 | 95.58773 | 32197 ft | 437 kts | 293° |
| 2026-05-06 03:36 | 40.05945 | 95.51706 | 32189 ft | 437 kts | 293° |
| 2026-05-06 03:37 | 40.08644 | 95.44590 | 32193 ft | 438 kts | 293° |
| 2026-05-06 03:37 | 40.11346 | 95.37462 | 32200 ft | 438 kts | 293° |
| 2026-05-06 03:38 | 40.14046 | 95.30325 | 32191 ft | 437 kts | 293° |
| 2026-05-06 03:38 | 40.16735 | 95.23185 | 32194 ft | 438 kts | 293° |
| 2026-05-06 03:39 | 40.19426 | 95.16031 | 32196 ft | 439 kts | 292° |
| 2026-05-06 03:39 | 40.22143 | 95.08872 | 32197 ft | 439 kts | 293° |
| 2026-05-06 03:40 | 40.24889 | 95.01707 | 32193 ft | 440 kts | 293° |
| 2026-05-06 03:40 | 40.27622 | 94.94542 | 32193 ft | 440 kts | 293° |
| 2026-05-06 03:41 | 40.30458 | 94.87430 | 32192 ft | 442 kts | 297° |
| 2026-05-06 03:41 | 40.34068 | 94.80881 | 32198 ft | 446 kts | 304° |
| 2026-05-06 03:42 | 40.37930 | 94.74584 | 32196 ft | 445 kts | 304° |
| 2026-05-06 03:42 | 40.41787 | 94.68235 | 32193 ft | 446 kts | 304° |
| 2026-05-06 03:43 | 40.45641 | 94.61852 | 32192 ft | 445 kts | 303° |
| 2026-05-06 03:43 | 40.49481 | 94.55472 | 32198 ft | 445 kts | 303° |
| 2026-05-06 03:44 | 40.53314 | 94.49090 | 32198 ft | 445 kts | 303° |
| 2026-05-06 03:44 | 40.57151 | 94.42684 | 32192 ft | 445 kts | 303° |
| 2026-05-06 03:45 | 40.60982 | 94.36286 | 32188 ft | 445 kts | 303° |
| 2026-05-06 03:45 | 40.64784 | 94.29922 | 32196 ft | 444 kts | 303° |
| 2026-05-06 03:46 | 40.68600 | 94.23522 | 32192 ft | 444 kts | 303° |
| 2026-05-06 03:46 | 40.72411 | 94.17109 | 32200 ft | 445 kts | 303° |
| 2026-05-06 03:47 | 40.76229 | 94.10670 | 32192 ft | 446 kts | 303° |
| 2026-05-06 03:47 | 40.80053 | 94.04214 | 32194 ft | 447 kts | 303° |
| 2026-05-06 03:48 | 40.83875 | 93.97750 | 32192 ft | 447 kts | 303° |
| 2026-05-06 03:48 | 40.87702 | 93.91256 | 32191 ft | 448 kts | 303° |
| 2026-05-06 03:49 | 40.91535 | 93.84745 | 32196 ft | 449 kts | 303° |
| 2026-05-06 03:49 | 40.95535 | 93.78353 | 32193 ft | 452 kts | 306° |
| 2026-05-06 03:50 | 40.99665 | 93.72068 | 32192 ft | 452 kts | 307° |
| 2026-05-06 03:50 | 41.03759 | 93.65797 | 32191 ft | 452 kts | 306° |
| 2026-05-06 03:51 | 41.07856 | 93.59457 | 32197 ft | 453 kts | 306° |
| 2026-05-06 03:51 | 41.11940 | 93.53096 | 32216 ft | 453 kts | 306° |
| 2026-05-06 03:52 | 41.16019 | 93.46709 | 32226 ft | 453 kts | 306° |
| 2026-05-06 03:52 | 41.19414 | 93.41392 | 32219 ft | 454 kts | 306° |
| 2026-05-06 03:53 | 41.23498 | 93.34990 | 32224 ft | 454 kts | 306° |
| 2026-05-06 03:53 | 41.27583 | 93.28569 | 32226 ft | 455 kts | 306° |
| 2026-05-06 03:54 | 41.31675 | 93.22129 | 32221 ft | 456 kts | 306° |
| 2026-05-06 03:54 | 41.35769 | 93.15671 | 32226 ft | 456 kts | 306° |
| 2026-05-06 03:55 | 41.39863 | 93.09199 | 32224 ft | 457 kts | 306° |
| 2026-05-06 03:55 | 41.43929 | 93.02754 | 32219 ft | 457 kts | 306° |
| 2026-05-06 03:56 | 41.48018 | 92.96256 | 32217 ft | 457 kts | 306° |
| 2026-05-06 03:56 | 41.52113 | 92.89742 | 32222 ft | 458 kts | 306° |
| 2026-05-06 03:57 | 41.56203 | 92.83214 | 32225 ft | 459 kts | 306° |
| 2026-05-06 03:57 | 41.60298 | 92.76672 | 32219 ft | 459 kts | 306° |
| 2026-05-06 03:58 | 41.64393 | 92.70114 | 32211 ft | 460 kts | 306° |
| 2026-05-06 03:58 | 41.68489 | 92.63533 | 32197 ft | 461 kts | 307° |
| 2026-05-06 03:59 | 41.72587 | 92.56935 | 32198 ft | 461 kts | 307° |
| 2026-05-06 03:59 | 41.76700 | 92.50313 | 32197 ft | 463 kts | 307° |
| 2026-05-06 04:00 | 41.80812 | 92.43659 | 32196 ft | 464 kts | 307° |
| 2026-05-06 04:00 | 41.84934 | 92.36986 | 32198 ft | 465 kts | 307° |
| 2026-05-06 04:01 | 41.89054 | 92.30286 | 32199 ft | 465 kts | 307° |
| 2026-05-06 04:01 | 41.93178 | 92.23578 | 32199 ft | 467 kts | 307° |
| 2026-05-06 04:02 | 41.97277 | 92.16895 | 32213 ft | 467 kts | 307° |
| 2026-05-06 04:02 | 42.01407 | 92.10148 | 32211 ft | 467 kts | 307° |
| 2026-05-06 04:03 | 42.05536 | 92.03387 | 32200 ft | 467 kts | 307° |
| 2026-05-06 04:03 | 42.09652 | 91.96626 | 32199 ft | 467 kts | 307° |
| 2026-05-06 04:04 | 42.13759 | 91.89865 | 32198 ft | 466 kts | 307° |
| 2026-05-06 04:04 | 42.17869 | 91.83089 | 32201 ft | 466 kts | 307° |
| 2026-05-06 04:05 | 42.21973 | 91.76304 | 32191 ft | 467 kts | 307° |
| 2026-05-06 04:05 | 42.26509 | 91.69999 | 32218 ft | 470 kts | 315° |
| 2026-05-06 04:06 | 42.31268 | 91.64014 | 32199 ft | 470 kts | 315° |
| 2026-05-06 04:06 | 42.36034 | 91.57960 | 32201 ft | 470 kts | 315° |
| 2026-05-06 04:07 | 42.40786 | 91.51871 | 32198 ft | 471 kts | 315° |
| 2026-05-06 04:07 | 42.45543 | 91.45750 | 32209 ft | 472 kts | 315° |
| 2026-05-06 04:08 | 42.50305 | 91.39621 | 32195 ft | 472 kts | 315° |
| 2026-05-06 04:08 | 42.55063 | 91.33479 | 32208 ft | 472 kts | 315° |
| 2026-05-06 04:09 | 42.59792 | 91.27361 | 32211 ft | 473 kts | 315° |
| 2026-05-06 04:09 | 42.64581 | 91.21151 | 32203 ft | 473 kts | 316° |
| 2026-05-06 04:10 | 42.69304 | 91.15013 | 32215 ft | 473 kts | 316° |
| 2026-05-06 04:10 | 42.74057 | 91.08826 | 32198 ft | 473 kts | 316° |
| 2026-05-06 04:11 | 42.78813 | 91.02616 | 32214 ft | 474 kts | 316° |
| 2026-05-06 04:11 | 42.83571 | 90.96393 | 32211 ft | 474 kts | 316° |
| 2026-05-06 04:12 | 42.88223 | 90.90021 | 32197 ft | 475 kts | 311° |
| 2026-05-06 04:12 | 42.92065 | 90.82695 | 32200 ft | 476 kts | 302° |
| 2026-05-06 04:13 | 42.95516 | 90.74971 | 32216 ft | 476 kts | 302° |
| 2026-05-06 04:13 | 42.98978 | 90.67251 | 32210 ft | 477 kts | 302° |
| 2026-05-06 04:14 | 43.02443 | 90.59581 | 32211 ft | 478 kts | 302° |
| 2026-05-06 04:14 | 43.05931 | 90.51849 | 32210 ft | 478 kts | 303° |
| 2026-05-06 04:15 | 43.09423 | 90.44092 | 32218 ft | 479 kts | 303° |
| 2026-05-06 04:15 | 43.12916 | 90.36311 | 32209 ft | 479 kts | 303° |
| 2026-05-06 04:16 | 43.16404 | 90.28523 | 32215 ft | 480 kts | 303° |
| 2026-05-06 04:16 | 43.19888 | 90.20723 | 32215 ft | 480 kts | 303° |
| 2026-05-06 04:17 | 43.23367 | 90.12915 | 32216 ft | 479 kts | 303° |
| 2026-05-06 04:17 | 43.26850 | 90.05103 | 32218 ft | 480 kts | 303° |
| 2026-05-06 04:18 | 43.30316 | 89.97314 | 32216 ft | 482 kts | 303° |
| 2026-05-06 04:18 | 43.33808 | 89.89434 | 32199 ft | 483 kts | 303° |
| 2026-05-06 04:19 | 43.37294 | 89.81545 | 32219 ft | 483 kts | 303° |
| 2026-05-06 04:19 | 43.40776 | 89.73642 | 32192 ft | 484 kts | 303° |
| 2026-05-06 04:20 | 43.44257 | 89.65721 | 32198 ft | 484 kts | 303° |
| 2026-05-06 04:20 | 43.47734 | 89.57791 | 32200 ft | 484 kts | 303° |
| 2026-05-06 04:21 | 43.51208 | 89.49840 | 32217 ft | 483 kts | 303° |
| 2026-05-06 04:21 | 43.54649 | 89.41949 | 32217 ft | 483 kts | 303° |
| 2026-05-06 04:22 | 43.58124 | 89.34028 | 32219 ft | 482 kts | 304° |
| 2026-05-06 04:23 | 43.63412 | 89.22201 | 32220 ft | 482 kts | 304° |
| 2026-05-06 04:23 | 43.66931 | 89.14292 | 32217 ft | 483 kts | 304° |
| 2026-05-06 04:24 | 43.70436 | 89.06375 | 32218 ft | 483 kts | 304° |
| 2026-05-06 04:24 | 43.73937 | 88.98439 | 32213 ft | 483 kts | 304° |
| 2026-05-06 04:25 | 43.77425 | 88.90508 | 32223 ft | 482 kts | 304° |
| 2026-05-06 04:25 | 43.80913 | 88.82566 | 32200 ft | 482 kts | 304° |
| 2026-05-06 04:26 | 43.84369 | 88.74669 | 32216 ft | 483 kts | 304° |
| 2026-05-06 04:26 | 43.87846 | 88.66693 | 32218 ft | 483 kts | 304° |
| 2026-05-06 04:27 | 43.91321 | 88.58711 | 32224 ft | 483 kts | 304° |
| 2026-05-06 04:27 | 43.94792 | 88.50713 | 32212 ft | 484 kts | 304° |
| 2026-05-06 04:28 | 43.98263 | 88.42695 | 32215 ft | 484 kts | 304° |
| 2026-05-06 04:28 | 44.01721 | 88.34681 | 32213 ft | 484 kts | 304° |
| 2026-05-06 04:29 | 44.05179 | 88.26649 | 32201 ft | 484 kts | 304° |
| 2026-05-06 04:29 | 44.08628 | 88.18607 | 32211 ft | 484 kts | 304° |
| 2026-05-06 04:30 | 44.12054 | 88.10607 | 32219 ft | 484 kts | 304° |
| 2026-05-06 04:30 | 44.15494 | 88.02544 | 32204 ft | 484 kts | 304° |
| 2026-05-06 04:31 | 44.19102 | 87.94657 | 32216 ft | 481 kts | 309° |
| 2026-05-06 04:31 | 44.23171 | 87.87275 | 32215 ft | 480 kts | 311° |
| 2026-05-06 04:32 | 44.27260 | 87.79902 | 32217 ft | 481 kts | 310° |
| 2026-05-06 04:32 | 44.31288 | 87.72440 | 32212 ft | 481 kts | 310° |
| 2026-05-06 04:33 | 44.35315 | 87.64981 | 32215 ft | 480 kts | 310° |
| 2026-05-06 04:33 | 44.39393 | 87.57588 | 32201 ft | 480 kts | 310° |
| 2026-05-06 04:34 | 44.43471 | 87.50184 | 32215 ft | 480 kts | 310° |
| 2026-05-06 04:34 | 44.47534 | 87.42765 | 32212 ft | 479 kts | 310° |
| 2026-05-06 04:35 | 44.51584 | 87.35343 | 32199 ft | 479 kts | 310° |
| 2026-05-06 04:35 | 44.55599 | 87.27976 | 32220 ft | 478 kts | 310° |
| 2026-05-06 04:36 | 44.59767 | 87.20716 | 32217 ft | 477 kts | 311° |
| 2026-05-06 04:36 | 44.63985 | 87.13531 | 32210 ft | 477 kts | 311° |
| 2026-05-06 04:37 | 44.68175 | 87.06301 | 32217 ft | 476 kts | 311° |
| 2026-05-06 04:37 | 44.72343 | 86.99053 | 32215 ft | 476 kts | 311° |
| 2026-05-06 04:38 | 44.76514 | 86.91814 | 32216 ft | 476 kts | 311° |
| 2026-05-06 04:38 | 44.80655 | 86.84618 | 32213 ft | 476 kts | 311° |
| 2026-05-06 04:39 | 44.84811 | 86.77353 | 32201 ft | 477 kts | 310° |
| 2026-05-06 04:39 | 44.88932 | 86.70028 | 32196 ft | 477 kts | 310° |
| 2026-05-06 04:40 | 44.92345 | 86.63920 | 32213 ft | 476 kts | 310° |
| 2026-05-06 04:40 | 44.96472 | 86.56526 | 32199 ft | 476 kts | 310° |
| 2026-05-06 04:41 | 45.00546 | 86.49215 | 32199 ft | 476 kts | 310° |
| 2026-05-06 04:41 | 45.04641 | 86.41857 | 32212 ft | 476 kts | 310° |
| 2026-05-06 04:42 | 45.08734 | 86.34485 | 32215 ft | 476 kts | 309° |
| 2026-05-06 04:42 | 45.12817 | 86.27107 | 32202 ft | 476 kts | 309° |
| 2026-05-06 04:43 | 45.16902 | 86.19707 | 32194 ft | 477 kts | 309° |
| 2026-05-06 04:43 | 45.20984 | 86.12303 | 32194 ft | 477 kts | 309° |
| 2026-05-06 04:44 | 45.25057 | 86.04889 | 32191 ft | 476 kts | 309° |
| 2026-05-06 04:44 | 45.29127 | 85.97458 | 32194 ft | 476 kts | 309° |
| 2026-05-06 04:45 | 45.33185 | 85.90024 | 32194 ft | 476 kts | 309° |
| 2026-05-06 04:45 | 45.37231 | 85.82596 | 32194 ft | 475 kts | 309° |
| 2026-05-06 04:46 | 45.41274 | 85.75159 | 32197 ft | 475 kts | 309° |
| 2026-05-06 04:46 | 45.45309 | 85.67711 | 32186 ft | 476 kts | 309° |
| 2026-05-06 04:47 | 45.49345 | 85.60245 | 32184 ft | 475 kts | 309° |
| 2026-05-06 04:47 | 45.53375 | 85.52775 | 32181 ft | 475 kts | 308° |
| 2026-05-06 04:48 | 45.57396 | 85.45296 | 32187 ft | 475 kts | 308° |
| 2026-05-06 04:48 | 45.61412 | 85.37808 | 32182 ft | 476 kts | 308° |
| 2026-05-06 04:49 | 45.65431 | 85.30293 | 32183 ft | 475 kts | 308° |
| 2026-05-06 04:49 | 45.69413 | 85.22832 | 32178 ft | 475 kts | 308° |
| 2026-05-06 04:50 | 45.73425 | 85.15325 | 32172 ft | 474 kts | 309° |
| 2026-05-06 04:50 | 45.77432 | 85.07834 | 32176 ft | 473 kts | 309° |
| 2026-05-06 04:51 | 45.81430 | 85.00347 | 32175 ft | 473 kts | 309° |
| 2026-05-06 04:51 | 45.85424 | 84.92840 | 32178 ft | 473 kts | 309° |
| 2026-05-06 04:52 | 45.89412 | 84.85320 | 32176 ft | 473 kts | 309° |
| 2026-05-06 04:52 | 45.93397 | 84.77789 | 32165 ft | 474 kts | 309° |
| 2026-05-06 04:53 | 45.97352 | 84.70299 | 32168 ft | 473 kts | 309° |
| 2026-05-06 04:53 | 46.01321 | 84.62751 | 32163 ft | 473 kts | 308° |
| 2026-05-06 04:54 | 46.05279 | 84.55206 | 32169 ft | 472 kts | 308° |
| 2026-05-06 04:54 | 46.09232 | 84.47656 | 32166 ft | 471 kts | 308° |
| 2026-05-06 04:55 | 46.13174 | 84.40100 | 32165 ft | 472 kts | 308° |
| 2026-05-06 04:55 | 46.17113 | 84.32530 | 32162 ft | 472 kts | 308° |
| 2026-05-06 04:56 | 46.21047 | 84.24947 | 32152 ft | 471 kts | 308° |
| 2026-05-06 04:56 | 46.24972 | 84.17367 | 32153 ft | 470 kts | 308° |
| 2026-05-06 04:57 | 46.28860 | 84.09827 | 32156 ft | 469 kts | 308° |
| 2026-05-06 04:57 | 46.32744 | 84.02234 | 32157 ft | 469 kts | 308° |
| 2026-05-06 04:58 | 46.36621 | 83.94630 | 32159 ft | 470 kts | 308° |
| 2026-05-06 04:58 | 46.40507 | 83.86999 | 32157 ft | 471 kts | 308° |
| 2026-05-06 04:59 | 46.44391 | 83.79350 | 32156 ft | 471 kts | 308° |
| 2026-05-06 04:59 | 46.48280 | 83.71673 | 32155 ft | 472 kts | 308° |
| 2026-05-06 05:00 | 46.52161 | 83.63982 | 32147 ft | 472 kts | 308° |
| 2026-05-06 05:00 | 46.56011 | 83.56343 | 32146 ft | 471 kts | 308° |
| 2026-05-06 05:01 | 46.59897 | 83.48600 | 32146 ft | 471 kts | 307° |
| 2026-05-06 05:01 | 46.63721 | 83.40962 | 32146 ft | 470 kts | 307° |
| 2026-05-06 05:02 | 46.67450 | 83.33143 | 32144 ft | 470 kts | 304° |
| 2026-05-06 05:02 | 46.70929 | 83.25068 | 32149 ft | 470 kts | 303° |
| 2026-05-06 05:03 | 46.74395 | 83.16980 | 32156 ft | 470 kts | 303° |
| 2026-05-06 05:03 | 46.77874 | 83.08901 | 32145 ft | 470 kts | 303° |
| 2026-05-06 05:04 | 46.81346 | 83.00836 | 32145 ft | 469 kts | 303° |
| 2026-05-06 05:04 | 46.84714 | 82.92687 | 32139 ft | 470 kts | 297° |
| 2026-05-06 05:05 | 46.86974 | 82.83709 | 32154 ft | 473 kts | 286° |
| 2026-05-06 05:05 | 46.88091 | 82.74214 | 32144 ft | 475 kts | 280° |
| 2026-05-06 05:06 | 46.89006 | 82.64707 | 32137 ft | 475 kts | 280° |
| 2026-05-06 05:06 | 46.89949 | 82.55155 | 32142 ft | 475 kts | 280° |
| 2026-05-06 05:07 | 46.90912 | 82.45604 | 32134 ft | 474 kts | 280° |
| 2026-05-06 05:07 | 46.91866 | 82.36063 | 32141 ft | 474 kts | 280° |
| 2026-05-06 05:08 | 46.92816 | 82.26502 | 32137 ft | 474 kts | 280° |
| 2026-05-06 05:08 | 46.93754 | 82.16940 | 32139 ft | 474 kts | 280° |
| 2026-05-06 05:09 | 46.94678 | 82.07461 | 32136 ft | 473 kts | 280° |
| 2026-05-06 05:09 | 46.95600 | 81.97914 | 32141 ft | 474 kts | 280° |
| 2026-05-06 05:10 | 46.96511 | 81.88361 | 32138 ft | 474 kts | 279° |
| 2026-05-06 05:10 | 46.97403 | 81.78780 | 32132 ft | 474 kts | 279° |
| 2026-05-06 05:11 | 46.98281 | 81.69212 | 32138 ft | 474 kts | 279° |
| 2026-05-06 05:11 | 46.99154 | 81.59629 | 32129 ft | 474 kts | 279° |
| 2026-05-06 05:12 | 47.00021 | 81.50049 | 32126 ft | 474 kts | 279° |
| 2026-05-06 05:12 | 47.00882 | 81.40471 | 32127 ft | 474 kts | 279° |
| 2026-05-06 05:13 | 47.01727 | 81.30964 | 32126 ft | 474 kts | 279° |
| 2026-05-06 05:13 | 47.02569 | 81.21378 | 32128 ft | 474 kts | 278° |
| 2026-05-06 05:14 | 47.03405 | 81.11782 | 32137 ft | 474 kts | 278° |
| 2026-05-06 05:14 | 47.04235 | 81.02185 | 32123 ft | 474 kts | 278° |
| 2026-05-06 05:15 | 47.05058 | 80.92573 | 32131 ft | 474 kts | 278° |
| 2026-05-06 05:15 | 47.05865 | 80.83030 | 32124 ft | 474 kts | 278° |
| 2026-05-06 05:16 | 47.06671 | 80.73428 | 32135 ft | 474 kts | 278° |
| 2026-05-06 05:16 | 47.07468 | 80.63828 | 32129 ft | 473 kts | 278° |
| 2026-05-06 05:17 | 47.08255 | 80.54239 | 32137 ft | 474 kts | 278° |
| 2026-05-06 05:17 | 47.09038 | 80.44628 | 32122 ft | 474 kts | 278° |
| 2026-05-06 05:18 | 47.09810 | 80.35037 | 32133 ft | 473 kts | 278° |
| 2026-05-06 05:18 | 47.10574 | 80.25465 | 32133 ft | 472 kts | 277° |
| 2026-05-06 05:19 | 47.11328 | 80.15899 | 32126 ft | 472 kts | 277° |
| 2026-05-06 05:19 | 47.12072 | 80.06354 | 32117 ft | 473 kts | 277° |
| 2026-05-06 05:20 | 47.12811 | 79.96766 | 32114 ft | 473 kts | 277° |
| 2026-05-06 05:20 | 47.13546 | 79.87159 | 32122 ft | 473 kts | 277° |
| 2026-05-06 05:21 | 47.14276 | 79.77553 | 32125 ft | 473 kts | 277° |
| 2026-05-06 05:21 | 47.15008 | 79.67942 | 32126 ft | 474 kts | 277° |
| 2026-05-06 05:22 | 47.15734 | 79.58312 | 32126 ft | 474 kts | 277° |
| 2026-05-06 05:22 | 47.16453 | 79.48679 | 32123 ft | 474 kts | 276° |
| 2026-05-06 05:23 | 47.17160 | 79.39049 | 32124 ft | 474 kts | 276° |
| 2026-05-06 05:23 | 47.18207 | 79.24605 | 32115 ft | 474 kts | 276° |
| 2026-05-06 05:24 | 47.18896 | 79.14972 | 32114 ft | 474 kts | 276° |
| 2026-05-06 05:24 | 47.19570 | 79.05320 | 32112 ft | 475 kts | 276° |
| 2026-05-06 05:25 | 47.20232 | 78.95669 | 32118 ft | 474 kts | 276° |
| 2026-05-06 05:25 | 47.20881 | 78.86065 | 32130 ft | 474 kts | 276° |
| 2026-05-06 05:26 | 47.21526 | 78.76413 | 32114 ft | 474 kts | 275° |
| 2026-05-06 05:26 | 47.22165 | 78.66746 | 32129 ft | 475 kts | 275° |
| 2026-05-06 05:27 | 47.22690 | 78.58712 | 32114 ft | 474 kts | 275° |
| 2026-05-06 05:27 | 47.23314 | 78.49056 | 32113 ft | 474 kts | 275° |
| 2026-05-06 05:28 | 47.23933 | 78.39380 | 32129 ft | 475 kts | 275° |
| 2026-05-06 05:28 | 47.24539 | 78.29712 | 32117 ft | 474 kts | 275° |
| 2026-05-06 05:29 | 47.25134 | 78.20052 | 32125 ft | 474 kts | 275° |
| 2026-05-06 05:29 | 47.25724 | 78.10447 | 32124 ft | 474 kts | 275° |
| 2026-05-06 05:30 | 47.26311 | 78.00785 | 32126 ft | 474 kts | 275° |
| 2026-05-06 05:30 | 47.26885 | 77.91126 | 32127 ft | 473 kts | 274° |
| 2026-05-06 05:31 | 47.27449 | 77.81448 | 32137 ft | 473 kts | 274° |
| 2026-05-06 05:31 | 47.28007 | 77.71797 | 32132 ft | 473 kts | 274° |
| 2026-05-06 05:32 | 47.28558 | 77.62137 | 32132 ft | 473 kts | 274° |
| 2026-05-06 05:32 | 47.29098 | 77.52486 | 32139 ft | 473 kts | 274° |
| 2026-05-06 05:33 | 47.29633 | 77.42818 | 32136 ft | 473 kts | 274° |
| 2026-05-06 05:33 | 47.30153 | 77.33199 | 32138 ft | 474 kts | 274° |
| 2026-05-06 05:34 | 47.30675 | 77.23452 | 32137 ft | 474 kts | 274° |
| 2026-05-06 05:34 | 47.31184 | 77.13833 | 32139 ft | 474 kts | 274° |
| 2026-05-06 05:35 | 47.31736 | 77.04153 | 32143 ft | 474 kts | 276° |
| 2026-05-06 05:35 | 47.32695 | 76.94529 | 32155 ft | 475 kts | 278° |
| 2026-05-06 05:36 | 47.33704 | 76.84911 | 32146 ft | 475 kts | 277° |
| 2026-05-06 05:36 | 47.34693 | 76.75293 | 32153 ft | 475 kts | 277° |
| 2026-05-06 05:37 | 47.35657 | 76.65667 | 32146 ft | 475 kts | 277° |
| 2026-05-06 05:37 | 47.36604 | 76.56022 | 32148 ft | 475 kts | 277° |
| 2026-05-06 05:38 | 47.37549 | 76.46396 | 32146 ft | 474 kts | 277° |
| 2026-05-06 05:38 | 47.38480 | 76.36780 | 32150 ft | 473 kts | 277° |
| 2026-05-06 05:39 | 47.39404 | 76.27177 | 32142 ft | 472 kts | 277° |
| 2026-05-06 05:39 | 47.40317 | 76.17587 | 32149 ft | 471 kts | 276° |
| 2026-05-06 05:40 | 47.41222 | 76.07991 | 32146 ft | 471 kts | 276° |
| 2026-05-06 05:40 | 47.42114 | 75.98456 | 32146 ft | 472 kts | 276° |
| 2026-05-06 05:41 | 47.43001 | 75.88870 | 32148 ft | 471 kts | 276° |
| 2026-05-06 05:41 | 47.43882 | 75.79269 | 32146 ft | 471 kts | 276° |
| 2026-05-06 05:42 | 47.44755 | 75.69676 | 32151 ft | 471 kts | 276° |
| 2026-05-06 05:42 | 47.45622 | 75.60061 | 32146 ft | 471 kts | 276° |
| 2026-05-06 05:43 | 47.46479 | 75.50468 | 32147 ft | 471 kts | 276° |
| 2026-05-06 05:43 | 47.47327 | 75.40868 | 32147 ft | 472 kts | 276° |
| 2026-05-06 05:44 | 47.48167 | 75.31252 | 32152 ft | 472 kts | 276° |
| 2026-05-06 05:44 | 47.49002 | 75.21628 | 32158 ft | 472 kts | 276° |
| 2026-05-06 05:45 | 47.49833 | 75.11978 | 32157 ft | 472 kts | 276° |
| 2026-05-06 05:45 | 47.50644 | 75.02400 | 32160 ft | 472 kts | 275° |
| 2026-05-06 05:46 | 47.51452 | 74.92751 | 32156 ft | 472 kts | 275° |
| 2026-05-06 05:46 | 47.52254 | 74.83114 | 32147 ft | 472 kts | 275° |
| 2026-05-06 05:47 | 47.53047 | 74.73466 | 32159 ft | 472 kts | 275° |
| 2026-05-06 05:47 | 47.53833 | 74.63833 | 32154 ft | 472 kts | 275° |
| 2026-05-06 05:48 | 47.54610 | 74.54182 | 32151 ft | 471 kts | 275° |
| 2026-05-06 05:48 | 47.55378 | 74.44562 | 32142 ft | 470 kts | 275° |
| 2026-05-06 05:49 | 47.56134 | 74.34950 | 32147 ft | 469 kts | 275° |
| 2026-05-06 05:49 | 47.56884 | 74.25347 | 32149 ft | 469 kts | 275° |
| 2026-05-06 05:50 | 47.57622 | 74.15814 | 32150 ft | 469 kts | 275° |
| 2026-05-06 05:50 | 47.58352 | 74.06216 | 32146 ft | 469 kts | 275° |
| 2026-05-06 05:51 | 47.59075 | 73.96617 | 32146 ft | 469 kts | 275° |
| 2026-05-06 05:51 | 47.59791 | 73.87025 | 32150 ft | 468 kts | 275° |
| 2026-05-06 05:52 | 47.60500 | 73.77430 | 32148 ft | 468 kts | 275° |
| 2026-05-06 05:52 | 47.61200 | 73.67838 | 32148 ft | 468 kts | 274° |
| 2026-05-06 05:53 | 47.61891 | 73.58231 | 32147 ft | 468 kts | 274° |
| 2026-05-06 05:53 | 47.62575 | 73.48614 | 32147 ft | 469 kts | 274° |
| 2026-05-06 05:54 | 47.63245 | 73.39053 | 32145 ft | 470 kts | 274° |
| 2026-05-06 05:54 | 47.63916 | 73.29413 | 32136 ft | 470 kts | 274° |
| 2026-05-06 05:55 | 47.64578 | 73.19781 | 32144 ft | 469 kts | 274° |
| 2026-05-06 05:55 | 47.65231 | 73.10129 | 32141 ft | 470 kts | 274° |
| 2026-05-06 05:56 | 47.65875 | 73.00481 | 32143 ft | 470 kts | 274° |
| 2026-05-06 05:56 | 47.66513 | 72.90833 | 32138 ft | 470 kts | 274° |
| 2026-05-06 05:57 | 47.67142 | 72.81197 | 32137 ft | 469 kts | 274° |
| 2026-05-06 05:57 | 47.67763 | 72.71550 | 32141 ft | 469 kts | 274° |
| 2026-05-06 05:58 | 47.68372 | 72.61955 | 32137 ft | 470 kts | 274° |
| 2026-05-06 05:58 | 47.68976 | 72.52290 | 32138 ft | 470 kts | 274° |
| 2026-05-06 05:59 | 47.69577 | 72.42616 | 32140 ft | 470 kts | 274° |
| 2026-05-06 05:59 | 47.70166 | 72.32975 | 32143 ft | 469 kts | 274° |
| 2026-05-06 06:00 | 47.70740 | 72.23330 | 32142 ft | 469 kts | 274° |
| 2026-05-06 06:00 | 47.71313 | 72.13674 | 32145 ft | 469 kts | 274° |
| 2026-05-06 06:01 | 47.71875 | 72.04020 | 32142 ft | 469 kts | 274° |
| 2026-05-06 06:01 | 47.72434 | 71.94370 | 32139 ft | 468 kts | 274° |
| 2026-05-06 06:02 | 47.72979 | 71.84795 | 32134 ft | 468 kts | 274° |
| 2026-05-06 06:02 | 47.73461 | 71.75155 | 32142 ft | 467 kts | 273° |
| 2026-05-06 06:03 | 47.73843 | 71.65511 | 32122 ft | 467 kts | 273° |
| 2026-05-06 06:03 | 47.74218 | 71.55867 | 32130 ft | 467 kts | 273° |
| 2026-05-06 06:04 | 47.74601 | 71.46212 | 32137 ft | 468 kts | 273° |
| 2026-05-06 06:04 | 47.74985 | 71.36554 | 32127 ft | 468 kts | 273° |
| 2026-05-06 06:05 | 47.75356 | 71.26908 | 32113 ft | 469 kts | 273° |
| 2026-05-06 06:05 | 47.75718 | 71.17290 | 32123 ft | 469 kts | 273° |
| 2026-05-06 06:06 | 47.76078 | 71.07604 | 32104 ft | 469 kts | 273° |
| 2026-05-06 06:06 | 47.76429 | 70.97912 | 32117 ft | 469 kts | 273° |
| 2026-05-06 06:07 | 47.76764 | 70.88246 | 32104 ft | 467 kts | 273° |
| 2026-05-06 06:07 | 47.77096 | 70.78602 | 32113 ft | 467 kts | 274° |
| 2026-05-06 06:08 | 47.77423 | 70.68948 | 32120 ft | 467 kts | 274° |
| 2026-05-06 06:08 | 47.77737 | 70.59317 | 32111 ft | 466 kts | 274° |
| 2026-05-06 06:09 | 47.78039 | 70.49682 | 32114 ft | 466 kts | 274° |
| 2026-05-06 06:09 | 47.78337 | 70.40106 | 32101 ft | 466 kts | 274° |
| 2026-05-06 06:10 | 47.78628 | 70.30482 | 32097 ft | 466 kts | 274° |
| 2026-05-06 06:10 | 47.78911 | 70.20863 | 32099 ft | 466 kts | 274° |
| 2026-05-06 06:11 | 47.79186 | 70.11230 | 32095 ft | 466 kts | 274° |
| 2026-05-06 06:11 | 47.79450 | 70.01665 | 32094 ft | 465 kts | 274° |
| 2026-05-06 06:12 | 47.79710 | 69.92047 | 32092 ft | 465 kts | 273° |
| 2026-05-06 06:12 | 47.79960 | 69.82433 | 32083 ft | 465 kts | 273° |
| 2026-05-06 06:13 | 47.80204 | 69.72810 | 32087 ft | 464 kts | 273° |
| 2026-05-06 06:13 | 47.80435 | 69.63228 | 32060 ft | 463 kts | 273° |
| 2026-05-06 06:14 | 47.80623 | 69.55294 | 32047 ft | 461 kts | 273° |
| 2026-05-06 06:14 | 47.80840 | 69.45798 | 32052 ft | 459 kts | 273° |
| 2026-05-06 06:15 | 47.81045 | 69.36326 | 32059 ft | 458 kts | 273° |
| 2026-05-06 06:15 | 47.81247 | 69.26872 | 32055 ft | 458 kts | 273° |
| 2026-05-06 06:16 | 47.81440 | 69.17406 | 32055 ft | 457 kts | 273° |
| 2026-05-06 06:16 | 47.81627 | 69.07955 | 32051 ft | 457 kts | 273° |
| 2026-05-06 06:17 | 47.81801 | 68.98508 | 32056 ft | 456 kts | 274° |
| 2026-05-06 06:17 | 47.81970 | 68.89153 | 32052 ft | 455 kts | 274° |
| 2026-05-06 06:18 | 47.81964 | 68.79733 | 32052 ft | 456 kts | 268° |
| 2026-05-06 06:18 | 47.81124 | 68.70356 | 32063 ft | 457 kts | 265° |
| 2026-05-06 06:19 | 47.80233 | 68.61023 | 32049 ft | 456 kts | 265° |
| 2026-05-06 06:19 | 47.79355 | 68.51690 | 32044 ft | 455 kts | 265° |
| 2026-05-06 06:20 | 47.78487 | 68.42374 | 32044 ft | 454 kts | 265° |
| 2026-05-06 06:20 | 47.77615 | 68.33091 | 32047 ft | 453 kts | 265° |
| 2026-05-06 06:21 | 47.76737 | 68.23799 | 32042 ft | 453 kts | 265° |
| 2026-05-06 06:21 | 47.75849 | 68.14524 | 32049 ft | 453 kts | 265° |
| 2026-05-06 06:22 | 47.74961 | 68.05332 | 32049 ft | 452 kts | 265° |
| 2026-05-06 06:22 | 47.74059 | 67.96073 | 32047 ft | 453 kts | 265° |
| 2026-05-06 06:23 | 47.73154 | 67.86820 | 32046 ft | 452 kts | 265° |
| 2026-05-06 06:23 | 47.72237 | 67.77576 | 32048 ft | 453 kts | 264° |
| 2026-05-06 06:24 | 47.70978 | 67.68376 | 32042 ft | 455 kts | 261° |
| 2026-05-06 06:24 | 47.69602 | 67.59221 | 32049 ft | 455 kts | 261° |
| 2026-05-06 06:25 | 47.68227 | 67.50050 | 32053 ft | 455 kts | 261° |
| 2026-05-06 06:26 | 47.66171 | 67.36317 | 32048 ft | 454 kts | 261° |
| 2026-05-06 06:26 | 47.64793 | 67.27193 | 32047 ft | 452 kts | 261° |
| 2026-05-06 06:27 | 47.63423 | 67.18162 | 32042 ft | 451 kts | 261° |
| 2026-05-06 06:27 | 47.62039 | 67.09094 | 32048 ft | 450 kts | 261° |
| 2026-05-06 06:28 | 47.60653 | 67.00046 | 32049 ft | 449 kts | 261° |
| 2026-05-06 06:28 | 47.59259 | 66.91022 | 32050 ft | 449 kts | 260° |
| 2026-05-06 06:29 | 47.57863 | 66.82026 | 32047 ft | 448 kts | 260° |
| 2026-05-06 06:29 | 47.56465 | 66.73045 | 32047 ft | 447 kts | 260° |
| 2026-05-06 06:30 | 47.55022 | 66.64098 | 32048 ft | 446 kts | 259° |
| 2026-05-06 06:30 | 47.53542 | 66.55191 | 32046 ft | 446 kts | 259° |
| 2026-05-06 06:31 | 47.52068 | 66.46344 | 32045 ft | 445 kts | 259° |
| 2026-05-06 06:31 | 47.50590 | 66.37459 | 32047 ft | 444 kts | 259° |
| 2026-05-06 06:32 | 47.49104 | 66.28590 | 32047 ft | 444 kts | 259° |
| 2026-05-06 06:32 | 47.47615 | 66.19734 | 32048 ft | 444 kts | 259° |
| 2026-05-06 06:33 | 47.46114 | 66.10869 | 32048 ft | 445 kts | 259° |
| 2026-05-06 06:33 | 47.44614 | 66.02002 | 32049 ft | 445 kts | 259° |
| 2026-05-06 06:34 | 47.43104 | 65.93151 | 32051 ft | 444 kts | 258° |
| 2026-05-06 06:34 | 47.41595 | 65.84383 | 32037 ft | 443 kts | 258° |
| 2026-05-06 06:35 | 47.40119 | 65.75570 | 32036 ft | 442 kts | 259° |
| 2026-05-06 06:35 | 47.38665 | 65.66762 | 32036 ft | 442 kts | 259° |
| 2026-05-06 06:36 | 47.37201 | 65.57972 | 32037 ft | 441 kts | 259° |
| 2026-05-06 06:36 | 47.35729 | 65.49192 | 32037 ft | 441 kts | 258° |
| 2026-05-06 06:37 | 47.34245 | 65.40405 | 32038 ft | 441 kts | 258° |
| 2026-05-06 06:37 | 47.32755 | 65.31630 | 32024 ft | 441 kts | 258° |
| 2026-05-06 06:38 | 47.31261 | 65.22855 | 32030 ft | 442 kts | 258° |
| 2026-05-06 06:38 | 47.29758 | 65.14085 | 32025 ft | 441 kts | 258° |
| 2026-05-06 06:39 | 47.28248 | 65.05317 | 32029 ft | 442 kts | 258° |
| 2026-05-06 06:39 | 47.26746 | 64.96614 | 32027 ft | 441 kts | 258° |
| 2026-05-06 06:40 | 47.25233 | 64.87866 | 32024 ft | 440 kts | 257° |
| 2026-05-06 06:40 | 47.23718 | 64.79141 | 32027 ft | 439 kts | 258° |
| 2026-05-06 06:41 | 47.22202 | 64.70437 | 32029 ft | 439 kts | 257° |
| 2026-05-06 06:41 | 47.20679 | 64.61749 | 32031 ft | 438 kts | 257° |
| 2026-05-06 06:42 | 47.19152 | 64.53070 | 32023 ft | 439 kts | 257° |
| 2026-05-06 06:42 | 47.17617 | 64.44388 | 32017 ft | 438 kts | 257° |
| 2026-05-06 06:43 | 47.16073 | 64.35707 | 32017 ft | 438 kts | 257° |
| 2026-05-06 06:43 | 47.14530 | 64.27057 | 32018 ft | 438 kts | 257° |
| 2026-05-06 06:44 | 47.12977 | 64.18403 | 32021 ft | 438 kts | 257° |
| 2026-05-06 06:44 | 47.11420 | 64.09747 | 32018 ft | 438 kts | 257° |
| 2026-05-06 06:45 | 47.09866 | 64.01155 | 32019 ft | 438 kts | 257° |
| 2026-05-06 06:45 | 47.08293 | 63.92508 | 32020 ft | 438 kts | 256° |
| 2026-05-06 06:46 | 47.06721 | 63.83894 | 32016 ft | 436 kts | 256° |
| 2026-05-06 06:46 | 47.05143 | 63.75301 | 32020 ft | 436 kts | 256° |
| 2026-05-06 06:47 | 47.03556 | 63.66714 | 32017 ft | 436 kts | 256° |
| 2026-05-06 06:47 | 47.01969 | 63.58134 | 32020 ft | 436 kts | 255° |
| 2026-05-06 06:48 | 47.00380 | 63.49594 | 32019 ft | 436 kts | 255° |
| 2026-05-06 06:48 | 46.98775 | 63.41009 | 32005 ft | 437 kts | 255° |
| 2026-05-06 06:49 | 46.97158 | 63.32403 | 32000 ft | 438 kts | 255° |
| 2026-05-06 06:49 | 46.95534 | 63.23801 | 32003 ft | 438 kts | 255° |
| 2026-05-06 06:50 | 46.93901 | 63.15199 | 32000 ft | 438 kts | 255° |
| 2026-05-06 06:50 | 46.92267 | 63.06609 | 31997 ft | 438 kts | 255° |
| 2026-05-06 06:51 | 46.90640 | 62.98088 | 32003 ft | 438 kts | 255° |
| 2026-05-06 06:51 | 46.88992 | 62.89510 | 31986 ft | 438 kts | 254° |
| 2026-05-06 06:52 | 46.87335 | 62.80933 | 31993 ft | 438 kts | 254° |
| 2026-05-06 06:52 | 46.85672 | 62.72357 | 31989 ft | 438 kts | 254° |
| 2026-05-06 06:53 | 46.84010 | 62.63800 | 31989 ft | 439 kts | 254° |
| 2026-05-06 06:53 | 46.82332 | 62.55222 | 31992 ft | 439 kts | 253° |
| 2026-05-06 06:54 | 46.80646 | 62.46666 | 31986 ft | 439 kts | 253° |
| 2026-05-06 06:54 | 46.78954 | 62.38115 | 31999 ft | 438 kts | 253° |
| 2026-05-06 06:55 | 46.77258 | 62.29561 | 31987 ft | 438 kts | 253° |
| 2026-05-06 06:55 | 46.75561 | 62.21022 | 31990 ft | 439 kts | 253° |
| 2026-05-06 06:56 | 46.73861 | 62.12518 | 31988 ft | 439 kts | 253° |
| 2026-05-06 06:56 | 46.72148 | 62.03984 | 31987 ft | 439 kts | 253° |
| 2026-05-06 06:57 | 46.70423 | 61.95441 | 31996 ft | 439 kts | 252° |
| 2026-05-06 06:57 | 46.68697 | 61.86918 | 31986 ft | 439 kts | 252° |
| 2026-05-06 06:58 | 46.66959 | 61.78395 | 31984 ft | 439 kts | 252° |
| 2026-05-06 06:58 | 46.65220 | 61.69879 | 31978 ft | 439 kts | 252° |
| 2026-05-06 06:59 | 46.63478 | 61.61375 | 31983 ft | 438 kts | 252° |
| 2026-05-06 06:59 | 46.61729 | 61.52882 | 31985 ft | 439 kts | 252° |
| 2026-05-06 07:00 | 46.59969 | 61.44380 | 31982 ft | 439 kts | 251° |
| 2026-05-06 07:00 | 46.58208 | 61.35904 | 31980 ft | 438 kts | 251° |
| 2026-05-06 07:01 | 46.56740 | 61.28867 | 31976 ft | 437 kts | 251° |
| 2026-05-06 07:01 | 46.54968 | 61.20426 | 31986 ft | 437 kts | 251° |
| 2026-05-06 07:02 | 46.53194 | 61.11985 | 31981 ft | 437 kts | 251° |
| 2026-05-06 07:02 | 46.51412 | 61.03546 | 31983 ft | 437 kts | 251° |
| 2026-05-06 07:03 | 46.49628 | 60.95126 | 31977 ft | 436 kts | 251° |
| 2026-05-06 07:03 | 46.47834 | 60.86715 | 31984 ft | 436 kts | 251° |
| 2026-05-06 07:04 | 46.46039 | 60.78310 | 31969 ft | 436 kts | 250° |
| 2026-05-06 07:04 | 46.44249 | 60.69962 | 31971 ft | 436 kts | 250° |
| 2026-05-06 07:05 | 46.42443 | 60.61597 | 31975 ft | 435 kts | 250° |
| 2026-05-06 07:05 | 46.40631 | 60.53216 | 32221 ft | 436 kts | 250° |
| 2026-05-06 07:05 | 46.39728 | 60.49045 | 32764 ft | 430 kts | 250° |
| 2026-05-06 07:06 | 46.38835 | 60.44942 | 33389 ft | 423 kts | 249° |
| 2026-05-06 07:06 | 46.37951 | 60.40893 | 33879 ft | 420 kts | 249° |
| 2026-05-06 07:06 | 46.37073 | 60.36875 | 34253 ft | 418 kts | 249° |
| 2026-05-06 07:06 | 46.36197 | 60.32866 | 34531 ft | 418 kts | 249° |
| 2026-05-06 07:07 | 46.35316 | 60.28845 | 34701 ft | 420 kts | 249° |
| 2026-05-06 07:07 | 46.34426 | 60.24799 | 34918 ft | 421 kts | 249° |
| 2026-05-06 07:07 | 46.33535 | 60.20767 | 35185 ft | 420 kts | 249° |
| 2026-05-06 07:07 | 46.32648 | 60.16738 | 35481 ft | 419 kts | 249° |
| 2026-05-06 07:08 | 46.31773 | 60.12769 | 35678 ft | 421 kts | 250° |
| 2026-05-06 07:08 | 46.30881 | 60.08733 | 35874 ft | 421 kts | 250° |
| 2026-05-06 07:08 | 46.29990 | 60.04704 | 36118 ft | 421 kts | 250° |
| 2026-05-06 07:08 | 46.29092 | 60.00668 | 36307 ft | 421 kts | 250° |
| 2026-05-06 07:09 | 46.28193 | 59.96631 | 36518 ft | 421 kts | 250° |
| 2026-05-06 07:09 | 46.27297 | 59.92623 | 36874 ft | 417 kts | 250° |
| 2026-05-06 07:09 | 46.26417 | 59.88673 | 37421 ft | 409 kts | 250° |
| 2026-05-06 07:09 | 46.25544 | 59.84771 | 37730 ft | 407 kts | 250° |
| 2026-05-06 07:10 | 46.24669 | 59.80868 | 37841 ft | 410 kts | 251° |
| 2026-05-06 07:10 | 46.22896 | 59.72982 | 37908 ft | 416 kts | 251° |
| 2026-05-06 07:11 | 46.21086 | 59.65000 | 37904 ft | 418 kts | 250° |
| 2026-05-06 07:11 | 46.19264 | 59.57022 | 37904 ft | 419 kts | 250° |
| 2026-05-06 07:12 | 46.17446 | 59.49090 | 37910 ft | 418 kts | 250° |
| 2026-05-06 07:12 | 46.15613 | 59.41143 | 37901 ft | 417 kts | 250° |
| 2026-05-06 07:13 | 46.13785 | 59.33212 | 37895 ft | 417 kts | 250° |
| 2026-05-06 07:13 | 46.11949 | 59.25274 | 37885 ft | 416 kts | 250° |
| 2026-05-06 07:14 | 46.10105 | 59.17362 | 37880 ft | 416 kts | 250° |
| 2026-05-06 07:14 | 46.08262 | 59.09470 | 37884 ft | 415 kts | 250° |
| 2026-05-06 07:15 | 46.06420 | 59.01587 | 37891 ft | 415 kts | 250° |
| 2026-05-06 07:15 | 46.04564 | 58.93718 | 37886 ft | 415 kts | 249° |
| 2026-05-06 07:16 | 46.02710 | 58.85836 | 37885 ft | 416 kts | 249° |
| 2026-05-06 07:16 | 46.00838 | 58.77931 | 37902 ft | 418 kts | 249° |
| 2026-05-06 07:17 | 45.98962 | 58.70024 | 37916 ft | 418 kts | 249° |
| 2026-05-06 07:17 | 45.97076 | 58.62109 | 37908 ft | 419 kts | 249° |
| 2026-05-06 07:18 | 45.95191 | 58.54226 | 37910 ft | 420 kts | 249° |
| 2026-05-06 07:18 | 45.93288 | 58.46314 | 37906 ft | 419 kts | 249° |
| 2026-05-06 07:19 | 45.91387 | 58.38421 | 37904 ft | 418 kts | 249° |
| 2026-05-06 07:19 | 45.89481 | 58.30531 | 37907 ft | 417 kts | 249° |
| 2026-05-06 07:20 | 45.87571 | 58.22668 | 37911 ft | 417 kts | 249° |
| 2026-05-06 07:20 | 45.85655 | 58.14795 | 37908 ft | 417 kts | 249° |
| 2026-05-06 07:21 | 45.83734 | 58.06936 | 37908 ft | 418 kts | 249° |
| 2026-05-06 07:21 | 45.81818 | 57.99117 | 37907 ft | 418 kts | 249° |
| 2026-05-06 07:22 | 45.79881 | 57.91257 | 37907 ft | 418 kts | 249° |
| 2026-05-06 07:22 | 45.77938 | 57.83390 | 37909 ft | 419 kts | 248° |
| 2026-05-06 07:23 | 45.75992 | 57.75521 | 37906 ft | 419 kts | 248° |
| 2026-05-06 07:23 | 45.74034 | 57.67652 | 37910 ft | 419 kts | 248° |
| 2026-05-06 07:24 | 45.72076 | 57.59801 | 37908 ft | 419 kts | 248° |
| 2026-05-06 07:24 | 45.70115 | 57.51959 | 37904 ft | 418 kts | 248° |
| 2026-05-06 07:25 | 45.68150 | 57.44131 | 37911 ft | 418 kts | 248° |
| 2026-05-06 07:25 | 45.66177 | 57.36323 | 37904 ft | 417 kts | 248° |
| 2026-05-06 07:26 | 45.64208 | 57.28516 | 37908 ft | 417 kts | 248° |
| 2026-05-06 07:26 | 45.62238 | 57.20734 | 37908 ft | 416 kts | 248° |
| 2026-05-06 07:27 | 45.60260 | 57.12946 | 37887 ft | 417 kts | 247° |
| 2026-05-06 07:27 | 45.58273 | 57.05168 | 37865 ft | 416 kts | 247° |
| 2026-05-06 07:28 | 45.56296 | 56.97451 | 37866 ft | 417 kts | 247° |
| 2026-05-06 07:28 | 45.53299 | 56.85804 | 37867 ft | 417 kts | 247° |
| 2026-05-06 07:29 | 45.51291 | 56.78033 | 37873 ft | 418 kts | 247° |
| 2026-05-06 07:29 | 45.49273 | 56.70247 | 37861 ft | 420 kts | 247° |
| 2026-05-06 07:30 | 45.47247 | 56.62450 | 37875 ft | 419 kts | 247° |
| 2026-05-06 07:30 | 45.45218 | 56.54663 | 37881 ft | 420 kts | 246° |
| 2026-05-06 07:31 | 45.43182 | 56.46872 | 37875 ft | 420 kts | 246° |
| 2026-05-06 07:31 | 45.41135 | 56.39088 | 37869 ft | 419 kts | 246° |
| 2026-05-06 07:32 | 45.39084 | 56.31301 | 37883 ft | 420 kts | 246° |
| 2026-05-06 07:32 | 45.37046 | 56.23574 | 37869 ft | 420 kts | 246° |
| 2026-05-06 07:33 | 45.34984 | 56.15800 | 37868 ft | 420 kts | 246° |
| 2026-05-06 07:33 | 45.32918 | 56.08047 | 37871 ft | 419 kts | 246° |
| 2026-05-06 07:34 | 45.30850 | 56.00310 | 37873 ft | 419 kts | 246° |
| 2026-05-06 07:34 | 45.28775 | 55.92550 | 37883 ft | 420 kts | 246° |
| 2026-05-06 07:35 | 45.26695 | 55.84797 | 37885 ft | 420 kts | 246° |
| 2026-05-06 07:35 | 45.24604 | 55.77039 | 37881 ft | 422 kts | 246° |
| 2026-05-06 07:36 | 45.22503 | 55.69260 | 37881 ft | 422 kts | 246° |
| 2026-05-06 07:36 | 45.20392 | 55.61482 | 37885 ft | 423 kts | 246° |
| 2026-05-06 07:37 | 45.18266 | 55.53693 | 37881 ft | 424 kts | 245° |
| 2026-05-06 07:37 | 45.16154 | 55.45954 | 37877 ft | 424 kts | 245° |
| 2026-05-06 07:38 | 45.14026 | 55.38170 | 37881 ft | 424 kts | 245° |
| 2026-05-06 07:38 | 45.11889 | 55.30388 | 37882 ft | 424 kts | 245° |
| 2026-05-06 07:39 | 45.09663 | 55.22681 | 37878 ft | 421 kts | 239° |
| 2026-05-06 07:39 | 45.06426 | 55.15842 | 37886 ft | 419 kts | 230° |
| 2026-05-06 07:40 | 45.02359 | 55.09987 | 37882 ft | 417 kts | 222° |
| 2026-05-06 07:40 | 44.98055 | 55.04489 | 37884 ft | 417 kts | 222° |
| 2026-05-06 07:41 | 44.93757 | 54.98985 | 37884 ft | 417 kts | 222° |
| 2026-05-06 07:41 | 44.89469 | 54.93463 | 37879 ft | 417 kts | 222° |
| 2026-05-06 07:42 | 44.85191 | 54.87945 | 37891 ft | 417 kts | 222° |
| 2026-05-06 07:42 | 44.80933 | 54.82471 | 37884 ft | 417 kts | 222° |
| 2026-05-06 07:43 | 44.76646 | 54.76967 | 37889 ft | 417 kts | 222° |
| 2026-05-06 07:43 | 44.72360 | 54.71472 | 37891 ft | 417 kts | 222° |
| 2026-05-06 07:44 | 44.68077 | 54.65969 | 37886 ft | 417 kts | 224° |
| 2026-05-06 07:44 | 44.64271 | 54.59829 | 37890 ft | 418 kts | 233° |
| 2026-05-06 07:45 | 44.60964 | 54.53107 | 37889 ft | 418 kts | 233° |
| 2026-05-06 07:45 | 44.57639 | 54.46411 | 37888 ft | 418 kts | 233° |
| 2026-05-06 07:46 | 44.54306 | 54.39730 | 37897 ft | 418 kts | 233° |
| 2026-05-06 07:46 | 44.50992 | 54.33103 | 37898 ft | 417 kts | 233° |
| 2026-05-06 07:47 | 44.47651 | 54.26448 | 37898 ft | 417 kts | 233° |
| 2026-05-06 07:47 | 44.44306 | 54.19804 | 37901 ft | 417 kts | 233° |
| 2026-05-06 07:48 | 44.41524 | 54.14287 | 37896 ft | 417 kts | 233° |
| 2026-05-06 07:48 | 44.38177 | 54.07655 | 37902 ft | 417 kts | 233° |
| 2026-05-06 07:49 | 44.34826 | 54.01034 | 37904 ft | 417 kts | 233° |
| 2026-05-06 07:49 | 44.31471 | 53.94417 | 37907 ft | 417 kts | 233° |
| 2026-05-06 07:50 | 44.28109 | 53.87803 | 37908 ft | 417 kts | 233° |
| 2026-05-06 07:50 | 44.24745 | 53.81202 | 37907 ft | 417 kts | 233° |
| 2026-05-06 07:51 | 44.21380 | 53.74610 | 37916 ft | 417 kts | 233° |
| 2026-05-06 07:51 | 44.18029 | 53.68067 | 37918 ft | 417 kts | 233° |
| 2026-05-06 07:52 | 44.14658 | 53.61490 | 37910 ft | 417 kts | 233° |
| 2026-05-06 07:52 | 44.11279 | 53.54920 | 37916 ft | 417 kts | 233° |
| 2026-05-06 07:53 | 44.07897 | 53.48366 | 37921 ft | 417 kts | 233° |
| 2026-05-06 07:53 | 44.04511 | 53.41810 | 37925 ft | 417 kts | 233° |
| 2026-05-06 07:54 | 44.01117 | 53.35249 | 37925 ft | 419 kts | 232° |
| 2026-05-06 07:54 | 43.97710 | 53.28679 | 37936 ft | 419 kts | 233° |
| 2026-05-06 07:55 | 43.94295 | 53.22108 | 37927 ft | 420 kts | 233° |
| 2026-05-06 07:55 | 43.90881 | 53.15555 | 37934 ft | 419 kts | 232° |
| 2026-05-06 07:56 | 43.87470 | 53.09024 | 37932 ft | 417 kts | 232° |
| 2026-05-06 07:56 | 43.84071 | 53.02519 | 37939 ft | 416 kts | 232° |
| 2026-05-06 07:57 | 43.80697 | 52.96080 | 37948 ft | 416 kts | 232° |
| 2026-05-06 07:57 | 43.77289 | 52.89597 | 37969 ft | 417 kts | 232° |
| 2026-05-06 07:58 | 43.73866 | 52.83088 | 37968 ft | 419 kts | 232° |
| 2026-05-06 07:58 | 43.70437 | 52.76576 | 37960 ft | 420 kts | 232° |
| 2026-05-06 07:59 | 43.66993 | 52.70056 | 37961 ft | 421 kts | 232° |
| 2026-05-06 07:59 | 43.63526 | 52.63531 | 37965 ft | 421 kts | 232° |
| 2026-05-06 08:00 | 43.60033 | 52.57014 | 37964 ft | 422 kts | 232° |
| 2026-05-06 08:00 | 43.56564 | 52.50546 | 37956 ft | 422 kts | 232° |
| 2026-05-06 08:01 | 43.53071 | 52.44030 | 37964 ft | 423 kts | 232° |
| 2026-05-06 08:01 | 43.49571 | 52.37524 | 37975 ft | 422 kts | 232° |
| 2026-05-06 08:02 | 43.46065 | 52.31031 | 37963 ft | 422 kts | 232° |
| 2026-05-06 08:02 | 43.42568 | 52.24552 | 37973 ft | 421 kts | 232° |
| 2026-05-06 08:03 | 43.39069 | 52.18084 | 37958 ft | 422 kts | 232° |
| 2026-05-06 08:03 | 43.35564 | 52.11625 | 37968 ft | 421 kts | 232° |
| 2026-05-06 08:04 | 43.32055 | 52.05181 | 37972 ft | 421 kts | 232° |
| 2026-05-06 08:04 | 43.28552 | 51.98755 | 37952 ft | 420 kts | 232° |
| 2026-05-06 08:05 | 43.25067 | 51.92371 | 37961 ft | 420 kts | 231° |
| 2026-05-06 08:05 | 43.21557 | 51.85952 | 37959 ft | 420 kts | 231° |
| 2026-05-06 08:06 | 43.18045 | 51.79552 | 37961 ft | 420 kts | 231° |
| 2026-05-06 08:06 | 43.14524 | 51.73157 | 37960 ft | 420 kts | 231° |
| 2026-05-06 08:07 | 43.11001 | 51.66764 | 37958 ft | 420 kts | 231° |
| 2026-05-06 08:07 | 43.07479 | 51.60387 | 37969 ft | 420 kts | 231° |
| 2026-05-06 08:08 | 43.03957 | 51.54017 | 37959 ft | 420 kts | 231° |
| 2026-05-06 08:08 | 43.00433 | 51.47658 | 37970 ft | 419 kts | 231° |
| 2026-05-06 08:09 | 42.96906 | 51.41312 | 37970 ft | 419 kts | 231° |
| 2026-05-06 08:09 | 42.93379 | 51.34978 | 37954 ft | 418 kts | 231° |
| 2026-05-06 08:10 | 42.89880 | 51.28712 | 37963 ft | 418 kts | 231° |
| 2026-05-06 08:10 | 42.86347 | 51.22399 | 37961 ft | 418 kts | 231° |
| 2026-05-06 08:11 | 42.82818 | 51.16101 | 37968 ft | 418 kts | 231° |
| 2026-05-06 08:11 | 42.79288 | 51.09815 | 37959 ft | 418 kts | 231° |
| 2026-05-06 08:12 | 42.75748 | 51.03527 | 37972 ft | 418 kts | 231° |
| 2026-05-06 08:12 | 42.72213 | 50.97261 | 37979 ft | 417 kts | 231° |
| 2026-05-06 08:13 | 42.68696 | 50.91033 | 37967 ft | 418 kts | 231° |
| 2026-05-06 08:13 | 42.65139 | 50.84757 | 37981 ft | 420 kts | 231° |
| 2026-05-06 08:14 | 42.61562 | 50.78457 | 37977 ft | 421 kts | 231° |
| 2026-05-06 08:14 | 42.57987 | 50.72169 | 37979 ft | 421 kts | 231° |
| 2026-05-06 08:15 | 42.54396 | 50.65868 | 37978 ft | 422 kts | 231° |
| 2026-05-06 08:15 | 42.50801 | 50.59577 | 37980 ft | 421 kts | 231° |
| 2026-05-06 08:16 | 42.47212 | 50.53301 | 37980 ft | 421 kts | 231° |
| 2026-05-06 08:16 | 42.43645 | 50.47081 | 37982 ft | 421 kts | 231° |
| 2026-05-06 08:17 | 42.40176 | 50.40689 | 37982 ft | 421 kts | 233° |
| 2026-05-06 08:17 | 42.36803 | 50.34220 | 37979 ft | 421 kts | 233° |
| 2026-05-06 08:18 | 42.33421 | 50.27767 | 37983 ft | 420 kts | 233° |
| 2026-05-06 08:18 | 42.30019 | 50.21334 | 37981 ft | 421 kts | 232° |
| 2026-05-06 08:19 | 42.26610 | 50.14923 | 37983 ft | 420 kts | 232° |
| 2026-05-06 08:19 | 42.23194 | 50.08514 | 37977 ft | 420 kts | 232° |
| 2026-05-06 08:20 | 42.19767 | 50.02097 | 37985 ft | 420 kts | 232° |
| 2026-05-06 08:20 | 42.16346 | 49.95703 | 38003 ft | 420 kts | 232° |
| 2026-05-06 08:21 | 42.12921 | 49.89318 | 38002 ft | 421 kts | 232° |
| 2026-05-06 08:21 | 42.09510 | 49.82967 | 38000 ft | 421 kts | 232° |
| 2026-05-06 08:22 | 42.06069 | 49.76579 | 38002 ft | 421 kts | 232° |
| 2026-05-06 08:22 | 42.02632 | 49.70216 | 38000 ft | 421 kts | 232° |
| 2026-05-06 08:23 | 41.99192 | 49.63852 | 38002 ft | 420 kts | 232° |
| 2026-05-06 08:23 | 41.95750 | 49.57495 | 38004 ft | 421 kts | 232° |
| 2026-05-06 08:24 | 41.92295 | 49.51132 | 38004 ft | 421 kts | 232° |
| 2026-05-06 08:24 | 41.88846 | 49.44792 | 38007 ft | 420 kts | 232° |
| 2026-05-06 08:25 | 41.85416 | 49.38502 | 38010 ft | 420 kts | 232° |
| 2026-05-06 08:25 | 41.81960 | 49.32178 | 38006 ft | 419 kts | 232° |
| 2026-05-06 08:26 | 41.78607 | 49.25777 | 38012 ft | 420 kts | 234° |
| 2026-05-06 08:26 | 41.75402 | 49.19233 | 38008 ft | 420 kts | 235° |
| 2026-05-06 08:27 | 41.72192 | 49.12696 | 38011 ft | 420 kts | 234° |
| 2026-05-06 08:27 | 41.68975 | 49.06231 | 38008 ft | 419 kts | 234° |
| 2026-05-06 08:28 | 41.65729 | 48.99737 | 38008 ft | 419 kts | 234° |
| 2026-05-06 08:28 | 41.62485 | 48.93261 | 38008 ft | 419 kts | 234° |
| 2026-05-06 08:29 | 41.59241 | 48.86794 | 38011 ft | 419 kts | 234° |
| 2026-05-06 08:29 | 41.55998 | 48.80344 | 38009 ft | 418 kts | 234° |
| 2026-05-06 08:30 | 41.52745 | 48.73900 | 38009 ft | 419 kts | 234° |
| 2026-05-06 08:30 | 41.49317 | 48.67634 | 38010 ft | 418 kts | 231° |
| 2026-05-06 08:31 | 41.45787 | 48.61490 | 38010 ft | 418 kts | 231° |
| 2026-05-06 08:31 | 41.42289 | 48.55292 | 38009 ft | 417 kts | 232° |
| 2026-05-06 08:32 | 41.38862 | 48.49039 | 38018 ft | 417 kts | 233° |
| 2026-05-06 08:32 | 41.35490 | 48.42814 | 38016 ft | 417 kts | 233° |
| 2026-05-06 08:33 | 41.32079 | 48.36549 | 38016 ft | 417 kts | 232° |
| 2026-05-06 08:33 | 41.28668 | 48.30303 | 38024 ft | 417 kts | 232° |
| 2026-05-06 08:34 | 41.23536 | 48.20938 | 38038 ft | 416 kts | 232° |
| 2026-05-06 08:35 | 41.20142 | 48.14762 | 38043 ft | 417 kts | 232° |
| 2026-05-06 08:35 | 41.16716 | 48.08532 | 38043 ft | 417 kts | 232° |
| 2026-05-06 08:36 | 41.13314 | 48.02286 | 38025 ft | 418 kts | 236° |
| 2026-05-06 08:36 | 41.10728 | 47.95354 | 38017 ft | 421 kts | 245° |
| 2026-05-06 08:37 | 41.09047 | 47.87895 | 38044 ft | 424 kts | 253° |
| 2026-05-06 08:37 | 41.07951 | 47.81556 | 38028 ft | 425 kts | 253° |
| 2026-05-06 08:38 | 41.06622 | 47.73918 | 38037 ft | 425 kts | 253° |
| 2026-05-06 08:38 | 41.05271 | 47.66292 | 38027 ft | 425 kts | 253° |
| 2026-05-06 08:39 | 41.03904 | 47.58673 | 38035 ft | 425 kts | 253° |
| 2026-05-06 08:39 | 41.02534 | 47.51058 | 38031 ft | 425 kts | 252° |
| 2026-05-06 08:40 | 41.01162 | 47.43457 | 38026 ft | 424 kts | 252° |
| 2026-05-06 08:40 | 40.99782 | 47.35845 | 38023 ft | 424 kts | 252° |
| 2026-05-06 08:41 | 40.98405 | 47.28260 | 38020 ft | 423 kts | 252° |
| 2026-05-06 08:41 | 40.97030 | 47.20740 | 38035 ft | 423 kts | 252° |
| 2026-05-06 08:42 | 40.95638 | 47.13166 | 38040 ft | 423 kts | 252° |
| 2026-05-06 08:42 | 40.94243 | 47.05591 | 38033 ft | 423 kts | 252° |
| 2026-05-06 08:43 | 40.92843 | 46.98032 | 38034 ft | 423 kts | 252° |
| 2026-05-06 08:43 | 40.91444 | 46.90478 | 38043 ft | 423 kts | 252° |
| 2026-05-06 08:44 | 40.90049 | 46.82910 | 38044 ft | 424 kts | 254° |
| 2026-05-06 08:44 | 40.89205 | 46.75161 | 38054 ft | 427 kts | 258° |
| 2026-05-06 08:45 | 40.88498 | 46.67349 | 38047 ft | 428 kts | 258° |
| 2026-05-06 08:45 | 40.87777 | 46.59538 | 38046 ft | 428 kts | 258° |
| 2026-05-06 08:46 | 40.87035 | 46.51733 | 38056 ft | 428 kts | 258° |
| 2026-05-06 08:46 | 40.86287 | 46.43921 | 38056 ft | 429 kts | 258° |
| 2026-05-06 08:47 | 40.85539 | 46.36157 | 38045 ft | 429 kts | 258° |
| 2026-05-06 08:47 | 40.84780 | 46.28341 | 38048 ft | 429 kts | 258° |
| 2026-05-06 08:48 | 40.84018 | 46.20521 | 38046 ft | 429 kts | 258° |
| 2026-05-06 08:48 | 40.83247 | 46.12703 | 38046 ft | 429 kts | 258° |
| 2026-05-06 08:49 | 40.82474 | 46.04902 | 38053 ft | 429 kts | 258° |
| 2026-05-06 08:49 | 40.81695 | 45.97106 | 38050 ft | 427 kts | 258° |
| 2026-05-06 08:50 | 40.80913 | 45.89318 | 38047 ft | 428 kts | 258° |
| 2026-05-06 08:50 | 40.80125 | 45.81540 | 38059 ft | 428 kts | 258° |
| 2026-05-06 08:51 | 40.79330 | 45.73751 | 38054 ft | 429 kts | 258° |
| 2026-05-06 08:51 | 40.78528 | 45.65918 | 38054 ft | 431 kts | 258° |
| 2026-05-06 08:52 | 40.77723 | 45.58119 | 38052 ft | 432 kts | 258° |
| 2026-05-06 08:52 | 40.77036 | 45.50232 | 38057 ft | 435 kts | 263° |
| 2026-05-06 08:53 | 40.77217 | 45.42209 | 38058 ft | 439 kts | 269° |
| 2026-05-06 08:53 | 40.77619 | 45.34160 | 38047 ft | 440 kts | 269° |
| 2026-05-06 08:54 | 40.77996 | 45.26105 | 38036 ft | 440 kts | 269° |
| 2026-05-06 08:54 | 40.78355 | 45.18035 | 38034 ft | 440 kts | 269° |
| 2026-05-06 08:55 | 40.78707 | 45.10013 | 38036 ft | 441 kts | 268° |
| 2026-05-06 08:55 | 40.79057 | 45.01929 | 38028 ft | 441 kts | 268° |
| 2026-05-06 08:56 | 40.79402 | 44.93858 | 38036 ft | 442 kts | 268° |
| 2026-05-06 08:56 | 40.79726 | 44.85750 | 38023 ft | 442 kts | 269° |
| 2026-05-06 08:57 | 40.80059 | 44.77648 | 38023 ft | 442 kts | 268° |
| 2026-05-06 08:57 | 40.80387 | 44.69589 | 37999 ft | 442 kts | 268° |
| 2026-05-06 08:58 | 40.80706 | 44.61485 | 38006 ft | 441 kts | 268° |
| 2026-05-06 08:58 | 40.81021 | 44.53388 | 38006 ft | 442 kts | 268° |
| 2026-05-06 08:59 | 40.81326 | 44.45276 | 38017 ft | 442 kts | 268° |
| 2026-05-06 08:59 | 40.81627 | 44.37169 | 38049 ft | 442 kts | 268° |
| 2026-05-06 09:00 | 40.81927 | 44.29045 | 38044 ft | 444 kts | 268° |
| 2026-05-06 09:00 | 40.82221 | 44.20887 | 38038 ft | 445 kts | 268° |
| 2026-05-06 09:01 | 40.82511 | 44.12695 | 38042 ft | 446 kts | 268° |
| 2026-05-06 09:01 | 40.82790 | 44.04510 | 38044 ft | 446 kts | 268° |
| 2026-05-06 09:02 | 40.83066 | 43.96383 | 38049 ft | 445 kts | 268° |
| 2026-05-06 09:02 | 40.83339 | 43.88204 | 38046 ft | 446 kts | 268° |
| 2026-05-06 09:03 | 40.83606 | 43.80022 | 38045 ft | 446 kts | 269° |
| 2026-05-06 09:03 | 40.83886 | 43.71825 | 38044 ft | 447 kts | 269° |
| 2026-05-06 09:04 | 40.84221 | 43.63627 | 38048 ft | 448 kts | 270° |
| 2026-05-06 09:04 | 40.84697 | 43.55420 | 38050 ft | 448 kts | 270° |
| 2026-05-06 09:05 | 40.85179 | 43.47209 | 38047 ft | 449 kts | 270° |
| 2026-05-06 09:05 | 40.85638 | 43.38981 | 38050 ft | 449 kts | 270° |
| 2026-05-06 09:06 | 40.86084 | 43.30745 | 38047 ft | 450 kts | 270° |
| 2026-05-06 09:06 | 40.86526 | 43.22504 | 38042 ft | 450 kts | 270° |
| 2026-05-06 09:07 | 40.86955 | 43.14305 | 38045 ft | 450 kts | 270° |
| 2026-05-06 09:07 | 40.87382 | 43.06060 | 38055 ft | 450 kts | 270° |
| 2026-05-06 09:08 | 40.87801 | 42.97790 | 38053 ft | 451 kts | 270° |
| 2026-05-06 09:08 | 40.88220 | 42.89527 | 38052 ft | 451 kts | 270° |
| 2026-05-06 09:09 | 40.88629 | 42.81304 | 38054 ft | 450 kts | 270° |
| 2026-05-06 09:09 | 40.89032 | 42.73037 | 38057 ft | 451 kts | 270° |
| 2026-05-06 09:10 | 40.89430 | 42.64756 | 38055 ft | 451 kts | 270° |
| 2026-05-06 09:10 | 40.89824 | 42.56470 | 38065 ft | 451 kts | 270° |
| 2026-05-06 09:11 | 40.90212 | 42.48174 | 38066 ft | 453 kts | 270° |
| 2026-05-06 09:11 | 40.90594 | 42.39860 | 38070 ft | 453 kts | 270° |
| 2026-05-06 09:12 | 40.90973 | 42.31597 | 38081 ft | 453 kts | 270° |
| 2026-05-06 09:12 | 40.91341 | 42.23271 | 38085 ft | 453 kts | 270° |
| 2026-05-06 09:13 | 40.91706 | 42.14932 | 38073 ft | 453 kts | 270° |
| 2026-05-06 09:13 | 40.92067 | 42.06620 | 38080 ft | 452 kts | 270° |
| 2026-05-06 09:14 | 40.92416 | 41.98355 | 38090 ft | 449 kts | 270° |
| 2026-05-06 09:14 | 40.92759 | 41.90174 | 38095 ft | 447 kts | 270° |
| 2026-05-06 09:15 | 40.93094 | 41.81972 | 38093 ft | 446 kts | 270° |
| 2026-05-06 09:15 | 40.93425 | 41.73785 | 38082 ft | 446 kts | 270° |
| 2026-05-06 09:16 | 40.93750 | 41.65617 | 38081 ft | 446 kts | 270° |
| 2026-05-06 09:16 | 40.94070 | 41.57383 | 38090 ft | 448 kts | 270° |
| 2026-05-06 09:17 | 40.94382 | 41.49150 | 38103 ft | 449 kts | 270° |
| 2026-05-06 09:17 | 40.94691 | 41.40887 | 38112 ft | 449 kts | 270° |
| 2026-05-06 09:18 | 40.94995 | 41.32634 | 38108 ft | 449 kts | 270° |
| 2026-05-06 09:18 | 40.95294 | 41.24373 | 38119 ft | 450 kts | 270° |
| 2026-05-06 09:19 | 40.95585 | 41.16083 | 38121 ft | 452 kts | 270° |
| 2026-05-06 09:19 | 40.95871 | 41.07811 | 38126 ft | 454 kts | 270° |
| 2026-05-06 09:20 | 40.96153 | 40.99474 | 38120 ft | 454 kts | 270° |
| 2026-05-06 09:20 | 40.96432 | 40.91131 | 38122 ft | 453 kts | 270° |
| 2026-05-06 09:21 | 40.96698 | 40.82801 | 38128 ft | 453 kts | 270° |
| 2026-05-06 09:21 | 40.96958 | 40.74461 | 38124 ft | 454 kts | 270° |
| 2026-05-06 09:22 | 40.97212 | 40.66115 | 38147 ft | 454 kts | 270° |
| 2026-05-06 09:22 | 40.97461 | 40.57759 | 38118 ft | 455 kts | 270° |
| 2026-05-06 09:23 | 40.97703 | 40.49404 | 38125 ft | 454 kts | 270° |
| 2026-05-06 09:23 | 40.97939 | 40.41035 | 38144 ft | 455 kts | 270° |
| 2026-05-06 09:24 | 40.98173 | 40.32668 | 38125 ft | 455 kts | 270° |
| 2026-05-06 09:24 | 40.98360 | 40.25724 | 38129 ft | 454 kts | 270° |
| 2026-05-06 09:25 | 40.98579 | 40.17377 | 38147 ft | 454 kts | 270° |
| 2026-05-06 09:25 | 40.98792 | 40.09018 | 38144 ft | 454 kts | 270° |
| 2026-05-06 09:26 | 40.99002 | 40.00669 | 38146 ft | 454 kts | 270° |
| 2026-05-06 09:26 | 40.99201 | 39.92323 | 38137 ft | 454 kts | 270° |
| 2026-05-06 09:27 | 40.99401 | 39.83955 | 38159 ft | 455 kts | 270° |
| 2026-05-06 09:27 | 40.99832 | 39.75571 | 38161 ft | 457 kts | 275° |
| 2026-05-06 09:28 | 41.00665 | 39.67201 | 38160 ft | 459 kts | 275° |
| 2026-05-06 09:28 | 41.01491 | 39.58810 | 38155 ft | 460 kts | 275° |
| 2026-05-06 09:29 | 41.02291 | 39.50441 | 38153 ft | 461 kts | 275° |
| 2026-05-06 09:29 | 41.03082 | 39.42016 | 38161 ft | 461 kts | 275° |
| 2026-05-06 09:30 | 41.03869 | 39.33589 | 38167 ft | 461 kts | 275° |
| 2026-05-06 09:30 | 41.04651 | 39.25149 | 38151 ft | 462 kts | 275° |
| 2026-05-06 09:31 | 41.05428 | 39.16705 | 38157 ft | 461 kts | 275° |
| 2026-05-06 09:31 | 41.06205 | 39.08255 | 38154 ft | 461 kts | 275° |
| 2026-05-06 09:32 | 41.06988 | 38.99856 | 38162 ft | 461 kts | 275° |
| 2026-05-06 09:32 | 41.07770 | 38.91421 | 38160 ft | 461 kts | 275° |
| 2026-05-06 09:33 | 41.08544 | 38.82957 | 38161 ft | 462 kts | 275° |
| 2026-05-06 09:33 | 41.09311 | 38.74509 | 38155 ft | 462 kts | 275° |
| 2026-05-06 09:34 | 41.10060 | 38.66029 | 38155 ft | 462 kts | 274° |
| 2026-05-06 09:34 | 41.10756 | 38.57555 | 38152 ft | 463 kts | 275° |
| 2026-05-06 09:35 | 41.11476 | 38.49056 | 38161 ft | 463 kts | 275° |
| 2026-05-06 09:35 | 41.12191 | 38.40558 | 38159 ft | 464 kts | 275° |
| 2026-05-06 09:36 | 41.12900 | 38.32057 | 38162 ft | 464 kts | 275° |
| 2026-05-06 09:36 | 41.13601 | 38.23537 | 38159 ft | 465 kts | 275° |
| 2026-05-06 09:37 | 41.14283 | 38.15068 | 38153 ft | 465 kts | 274° |
| 2026-05-06 09:37 | 41.14967 | 38.06537 | 38159 ft | 465 kts | 274° |
| 2026-05-06 09:38 | 41.15646 | 37.97991 | 38157 ft | 466 kts | 274° |
| 2026-05-06 09:38 | 41.16319 | 37.89443 | 38163 ft | 466 kts | 275° |
| 2026-05-06 09:39 | 41.17040 | 37.80886 | 38163 ft | 467 kts | 275° |
| 2026-05-06 09:39 | 41.17795 | 37.72328 | 38152 ft | 467 kts | 275° |
| 2026-05-06 09:40 | 41.18535 | 37.63758 | 38152 ft | 467 kts | 275° |
| 2026-05-06 09:40 | 41.19306 | 37.50868 | 38150 ft | 466 kts | 274° |
| 2026-05-06 09:41 | 41.19931 | 37.42294 | 38147 ft | 467 kts | 275° |
| 2026-05-06 09:41 | 41.20587 | 37.33772 | 38134 ft | 467 kts | 274° |
| 2026-05-06 09:42 | 41.21211 | 37.25182 | 38138 ft | 467 kts | 274° |
| 2026-05-06 09:42 | 41.21847 | 37.16608 | 38133 ft | 467 kts | 275° |
| 2026-05-06 09:43 | 41.22534 | 37.08033 | 38129 ft | 467 kts | 275° |
| 2026-05-06 09:43 | 41.23216 | 36.99451 | 38128 ft | 466 kts | 275° |
| 2026-05-06 09:44 | 41.23883 | 36.90884 | 38130 ft | 467 kts | 275° |
| 2026-05-06 09:44 | 41.24541 | 36.82308 | 38130 ft | 466 kts | 275° |
| 2026-05-06 09:45 | 41.25192 | 36.73724 | 38126 ft | 466 kts | 275° |
| 2026-05-06 09:45 | 41.25839 | 36.65141 | 38133 ft | 467 kts | 275° |
| 2026-05-06 09:46 | 41.26544 | 36.56631 | 38125 ft | 467 kts | 279° |
| 2026-05-06 09:46 | 41.28191 | 36.48279 | 38131 ft | 468 kts | 288° |
| 2026-05-06 09:47 | 41.30320 | 36.40090 | 38123 ft | 469 kts | 288° |
| 2026-05-06 09:47 | 41.32448 | 36.31884 | 38130 ft | 469 kts | 288° |
| 2026-05-06 09:48 | 41.34548 | 36.23650 | 38128 ft | 470 kts | 288° |
| 2026-05-06 09:48 | 41.36634 | 36.15384 | 38125 ft | 472 kts | 287° |
| 2026-05-06 09:49 | 41.38703 | 36.07140 | 38117 ft | 472 kts | 288° |
| 2026-05-06 09:49 | 41.40783 | 35.98839 | 38121 ft | 473 kts | 287° |
| 2026-05-06 09:50 | 41.42858 | 35.90528 | 38117 ft | 473 kts | 288° |
| 2026-05-06 09:50 | 41.44932 | 35.82194 | 38108 ft | 474 kts | 288° |
| 2026-05-06 09:51 | 41.46995 | 35.73866 | 38111 ft | 473 kts | 288° |
| 2026-05-06 09:51 | 41.49055 | 35.65520 | 38111 ft | 472 kts | 288° |
| 2026-05-06 09:52 | 41.51104 | 35.57197 | 38107 ft | 472 kts | 288° |
| 2026-05-06 09:52 | 41.53149 | 35.48857 | 38108 ft | 472 kts | 287° |
| 2026-05-06 09:53 | 41.55179 | 35.40541 | 38110 ft | 472 kts | 287° |
| 2026-05-06 09:53 | 41.57195 | 35.32255 | 38109 ft | 472 kts | 287° |
| 2026-05-06 09:54 | 41.59217 | 35.23927 | 38112 ft | 471 kts | 287° |
| 2026-05-06 09:54 | 41.61232 | 35.15587 | 38114 ft | 471 kts | 288° |
| 2026-05-06 09:55 | 41.63241 | 35.07260 | 38120 ft | 471 kts | 287° |
| 2026-05-06 09:55 | 41.65240 | 34.98922 | 38116 ft | 471 kts | 287° |
| 2026-05-06 09:56 | 41.67239 | 34.90579 | 38125 ft | 471 kts | 287° |
| 2026-05-06 09:56 | 41.69225 | 34.82222 | 38116 ft | 471 kts | 287° |
| 2026-05-06 09:57 | 41.71208 | 34.73864 | 38115 ft | 471 kts | 288° |
| 2026-05-06 09:57 | 41.73190 | 34.65488 | 38120 ft | 472 kts | 288° |
| 2026-05-06 09:58 | 41.75152 | 34.57159 | 38110 ft | 472 kts | 288° |
| 2026-05-06 09:58 | 41.77125 | 34.48755 | 38108 ft | 473 kts | 288° |
| 2026-05-06 09:59 | 41.79087 | 34.40351 | 38112 ft | 473 kts | 288° |
| 2026-05-06 09:59 | 41.81049 | 34.31917 | 38110 ft | 474 kts | 288° |
| 2026-05-06 10:00 | 41.83010 | 34.23460 | 38107 ft | 475 kts | 288° |
| 2026-05-06 10:00 | 41.84961 | 34.14992 | 38103 ft | 475 kts | 288° |
| 2026-05-06 10:01 | 41.86913 | 34.06530 | 38096 ft | 476 kts | 288° |
| 2026-05-06 10:01 | 41.88861 | 33.98035 | 38094 ft | 476 kts | 288° |
| 2026-05-06 10:02 | 41.90803 | 33.89532 | 38095 ft | 476 kts | 287° |
| 2026-05-06 10:02 | 41.92731 | 33.81064 | 38096 ft | 477 kts | 287° |
| 2026-05-06 10:03 | 41.94661 | 33.72548 | 38097 ft | 477 kts | 287° |
| 2026-05-06 10:03 | 41.96477 | 33.63971 | 38088 ft | 477 kts | 285° |
| 2026-05-06 10:04 | 41.98098 | 33.55313 | 38089 ft | 477 kts | 284° |
| 2026-05-06 10:04 | 41.99721 | 33.46668 | 38093 ft | 477 kts | 285° |
| 2026-05-06 10:05 | 42.01370 | 33.38030 | 38095 ft | 477 kts | 285° |
| 2026-05-06 10:05 | 42.03020 | 33.29388 | 38096 ft | 477 kts | 285° |
| 2026-05-06 10:06 | 42.04659 | 33.20745 | 38098 ft | 476 kts | 285° |
| 2026-05-06 10:06 | 42.06289 | 33.12112 | 38092 ft | 476 kts | 285° |
| 2026-05-06 10:07 | 42.07939 | 33.03534 | 38091 ft | 476 kts | 286° |
| 2026-05-06 10:07 | 42.09715 | 32.94953 | 38101 ft | 476 kts | 287° |
| 2026-05-06 10:08 | 42.11497 | 32.86354 | 38098 ft | 475 kts | 287° |
| 2026-05-06 10:08 | 42.13249 | 32.77773 | 38105 ft | 475 kts | 287° |
| 2026-05-06 10:09 | 42.14988 | 32.69184 | 38104 ft | 474 kts | 287° |
| 2026-05-06 10:09 | 42.16426 | 32.62068 | 38113 ft | 474 kts | 287° |
| 2026-05-06 10:10 | 42.18427 | 32.52101 | 38111 ft | 472 kts | 287° |
| 2026-05-06 10:10 | 42.20133 | 32.43558 | 38112 ft | 472 kts | 287° |
| 2026-05-06 10:11 | 42.21555 | 32.36398 | 38111 ft | 471 kts | 287° |
| 2026-05-06 10:11 | 42.23247 | 32.27868 | 38111 ft | 471 kts | 287° |
| 2026-05-06 10:12 | 42.24921 | 32.19388 | 38116 ft | 470 kts | 286° |
| 2026-05-06 10:12 | 42.26601 | 32.10866 | 38120 ft | 470 kts | 287° |
| 2026-05-06 10:13 | 42.28268 | 32.02340 | 38121 ft | 470 kts | 286° |
| 2026-05-06 10:13 | 42.29927 | 31.93808 | 38121 ft | 469 kts | 286° |
| 2026-05-06 10:14 | 42.31582 | 31.85268 | 38119 ft | 470 kts | 286° |
| 2026-05-06 10:14 | 42.33230 | 31.76719 | 38121 ft | 470 kts | 286° |
| 2026-05-06 10:15 | 42.34872 | 31.68162 | 38119 ft | 470 kts | 286° |
| 2026-05-06 10:15 | 42.36500 | 31.59660 | 38122 ft | 470 kts | 286° |
| 2026-05-06 10:16 | 42.38127 | 31.51093 | 38119 ft | 470 kts | 286° |
| 2026-05-06 10:16 | 42.39748 | 31.42531 | 38120 ft | 470 kts | 286° |
| 2026-05-06 10:17 | 42.41369 | 31.33968 | 38119 ft | 469 kts | 286° |
| 2026-05-06 10:17 | 42.42975 | 31.25399 | 38120 ft | 469 kts | 286° |
| 2026-05-06 10:18 | 42.44573 | 31.16855 | 38118 ft | 469 kts | 286° |
| 2026-05-06 10:18 | 42.46158 | 31.08351 | 38121 ft | 468 kts | 286° |
| 2026-05-06 10:19 | 42.47749 | 30.99792 | 38122 ft | 468 kts | 286° |
| 2026-05-06 10:19 | 42.49336 | 30.91229 | 38121 ft | 469 kts | 286° |
| 2026-05-06 10:20 | 42.50912 | 30.82657 | 38118 ft | 468 kts | 286° |
| 2026-05-06 10:20 | 42.52481 | 30.74103 | 38121 ft | 467 kts | 286° |
| 2026-05-06 10:21 | 42.54038 | 30.65569 | 38119 ft | 466 kts | 286° |
| 2026-05-06 10:21 | 42.55586 | 30.57053 | 38118 ft | 465 kts | 286° |
| 2026-05-06 10:22 | 42.57125 | 30.48538 | 38120 ft | 464 kts | 286° |
| 2026-05-06 10:22 | 42.58660 | 30.40041 | 38119 ft | 463 kts | 286° |
| 2026-05-06 10:23 | 42.60226 | 30.31562 | 38111 ft | 462 kts | 290° |
| 2026-05-06 10:23 | 42.62837 | 30.23655 | 38117 ft | 458 kts | 302° |
| 2026-05-06 10:24 | 42.66506 | 30.16651 | 38115 ft | 455 kts | 309° |
| 2026-05-06 10:24 | 42.70411 | 30.09877 | 38113 ft | 455 kts | 309° |
| 2026-05-06 10:25 | 42.74276 | 30.03121 | 38113 ft | 455 kts | 309° |
| 2026-05-06 10:25 | 42.78153 | 29.96279 | 38108 ft | 456 kts | 309° |
| 2026-05-06 10:26 | 42.82018 | 29.89415 | 38099 ft | 457 kts | 309° |
| 2026-05-06 10:26 | 42.85886 | 29.82521 | 38103 ft | 457 kts | 309° |
| 2026-05-06 10:27 | 42.89740 | 29.75640 | 38099 ft | 456 kts | 309° |
| 2026-05-06 10:27 | 42.93587 | 29.68755 | 38103 ft | 456 kts | 309° |
| 2026-05-06 10:28 | 42.97410 | 29.61898 | 38105 ft | 456 kts | 309° |
| 2026-05-06 10:28 | 43.01256 | 29.54987 | 38099 ft | 456 kts | 309° |
| 2026-05-06 10:29 | 43.05096 | 29.48068 | 38100 ft | 457 kts | 309° |
| 2026-05-06 10:29 | 43.08930 | 29.41138 | 38102 ft | 457 kts | 309° |
| 2026-05-06 10:30 | 43.12762 | 29.34200 | 38101 ft | 457 kts | 309° |
| 2026-05-06 10:30 | 43.16591 | 29.27251 | 38103 ft | 457 kts | 308° |
| 2026-05-06 10:31 | 43.20401 | 29.20328 | 38104 ft | 458 kts | 308° |
| 2026-05-06 10:31 | 43.24228 | 29.13352 | 38101 ft | 458 kts | 308° |
| 2026-05-06 10:32 | 43.28052 | 29.06365 | 38104 ft | 458 kts | 308° |
| 2026-05-06 10:32 | 43.31876 | 28.99358 | 38100 ft | 459 kts | 308° |
| 2026-05-06 10:33 | 43.35705 | 28.92326 | 38104 ft | 459 kts | 308° |
| 2026-05-06 10:33 | 43.39522 | 28.85301 | 38104 ft | 459 kts | 308° |
| 2026-05-06 10:34 | 43.43336 | 28.78258 | 38101 ft | 459 kts | 308° |
| 2026-05-06 10:34 | 43.47123 | 28.71261 | 38096 ft | 459 kts | 308° |
| 2026-05-06 10:35 | 43.50938 | 28.64189 | 38099 ft | 459 kts | 308° |
| 2026-05-06 10:35 | 43.54738 | 28.57126 | 38104 ft | 459 kts | 308° |
| 2026-05-06 10:36 | 43.58537 | 28.50044 | 38105 ft | 460 kts | 308° |
| 2026-05-06 10:36 | 43.62341 | 28.42952 | 38102 ft | 460 kts | 308° |
| 2026-05-06 10:37 | 43.66137 | 28.35850 | 38107 ft | 460 kts | 308° |
| 2026-05-06 10:37 | 43.69934 | 28.28728 | 38098 ft | 460 kts | 308° |
| 2026-05-06 10:38 | 43.73730 | 28.21581 | 38103 ft | 460 kts | 307° |
| 2026-05-06 10:38 | 43.77517 | 28.14436 | 38102 ft | 460 kts | 307° |
| 2026-05-06 10:39 | 43.81302 | 28.07288 | 38102 ft | 460 kts | 307° |
| 2026-05-06 10:39 | 43.85084 | 28.00121 | 38102 ft | 461 kts | 307° |
| 2026-05-06 10:40 | 43.88838 | 27.92988 | 38104 ft | 461 kts | 307° |
| 2026-05-06 10:40 | 43.92617 | 27.85794 | 38104 ft | 461 kts | 307° |
| 2026-05-06 10:41 | 43.96390 | 27.78586 | 38104 ft | 461 kts | 307° |
| 2026-05-06 10:41 | 44.00162 | 27.71371 | 38098 ft | 462 kts | 307° |
| 2026-05-06 10:42 | 44.03934 | 27.64136 | 38095 ft | 462 kts | 307° |
| 2026-05-06 10:42 | 44.07702 | 27.56893 | 38095 ft | 461 kts | 307° |
| 2026-05-06 10:43 | 44.11428 | 27.49704 | 38082 ft | 460 kts | 307° |
| 2026-05-06 10:44 | 44.17036 | 27.38863 | 38078 ft | 460 kts | 307° |
| 2026-05-06 10:44 | 44.20758 | 27.31641 | 38090 ft | 459 kts | 307° |
| 2026-05-06 10:45 | 44.24480 | 27.24406 | 38072 ft | 458 kts | 307° |
| 2026-05-06 10:45 | 44.28187 | 27.17183 | 38074 ft | 458 kts | 307° |
| 2026-05-06 10:46 | 44.31888 | 27.09953 | 38075 ft | 457 kts | 307° |
| 2026-05-06 10:46 | 44.35577 | 27.02727 | 38069 ft | 457 kts | 307° |
| 2026-05-06 10:47 | 44.39263 | 26.95479 | 38067 ft | 457 kts | 307° |
| 2026-05-06 10:47 | 44.42944 | 26.88232 | 38064 ft | 457 kts | 307° |
| 2026-05-06 10:48 | 44.46599 | 26.81015 | 38061 ft | 456 kts | 307° |
| 2026-05-06 10:48 | 44.50270 | 26.73755 | 38054 ft | 456 kts | 307° |
| 2026-05-06 10:49 | 44.53934 | 26.66484 | 38055 ft | 456 kts | 307° |
| 2026-05-06 10:49 | 44.57585 | 26.59223 | 38045 ft | 456 kts | 307° |
| 2026-05-06 10:50 | 44.61179 | 26.51907 | 38049 ft | 456 kts | 304° |
| 2026-05-06 10:50 | 44.64591 | 26.44398 | 38046 ft | 456 kts | 303° |
| 2026-05-06 10:51 | 44.67944 | 26.36911 | 38049 ft | 456 kts | 304° |
| 2026-05-06 10:51 | 44.71340 | 26.29379 | 38046 ft | 456 kts | 304° |
| 2026-05-06 10:52 | 44.74748 | 26.21846 | 38046 ft | 456 kts | 304° |
| 2026-05-06 10:52 | 44.78153 | 26.14323 | 38046 ft | 456 kts | 304° |
| 2026-05-06 10:53 | 44.81555 | 26.06783 | 38045 ft | 456 kts | 304° |
| 2026-05-06 10:53 | 44.84949 | 25.99227 | 38048 ft | 456 kts | 304° |
| 2026-05-06 10:54 | 44.88335 | 25.91674 | 38050 ft | 455 kts | 304° |
| 2026-05-06 10:54 | 44.91686 | 25.84180 | 38041 ft | 454 kts | 303° |
| 2026-05-06 10:55 | 44.95048 | 25.76640 | 38045 ft | 453 kts | 303° |
| 2026-05-06 10:55 | 44.98401 | 25.69105 | 38034 ft | 453 kts | 303° |
| 2026-05-06 10:56 | 45.01739 | 25.61586 | 38038 ft | 452 kts | 303° |
| 2026-05-06 10:56 | 45.05072 | 25.54057 | 38036 ft | 452 kts | 303° |
| 2026-05-06 10:57 | 45.08398 | 25.46515 | 38034 ft | 452 kts | 303° |
| 2026-05-06 10:57 | 45.11164 | 25.40236 | 38032 ft | 452 kts | 303° |
| 2026-05-06 10:58 | 45.14487 | 25.32669 | 38029 ft | 452 kts | 303° |
| 2026-05-06 10:58 | 45.17808 | 25.25094 | 38032 ft | 453 kts | 303° |
| 2026-05-06 10:59 | 45.21130 | 25.17484 | 38022 ft | 453 kts | 303° |
| 2026-05-06 10:59 | 45.24443 | 25.09875 | 38019 ft | 453 kts | 303° |
| 2026-05-06 11:00 | 45.27748 | 25.02266 | 38018 ft | 453 kts | 303° |
| 2026-05-06 11:00 | 45.31036 | 24.94684 | 38018 ft | 453 kts | 303° |
| 2026-05-06 11:01 | 45.34329 | 24.87060 | 38013 ft | 453 kts | 302° |
| 2026-05-06 11:01 | 45.37623 | 24.79422 | 38012 ft | 453 kts | 302° |
| 2026-05-06 11:02 | 45.40910 | 24.71775 | 38011 ft | 453 kts | 302° |
| 2026-05-06 11:02 | 45.44189 | 24.64119 | 38008 ft | 452 kts | 302° |
| 2026-05-06 11:03 | 45.47465 | 24.56459 | 37996 ft | 452 kts | 302° |
| 2026-05-06 11:03 | 45.50731 | 24.48800 | 38002 ft | 452 kts | 302° |
| 2026-05-06 11:04 | 45.53977 | 24.41166 | 37997 ft | 453 kts | 302° |
| 2026-05-06 11:04 | 45.57236 | 24.33473 | 38001 ft | 453 kts | 302° |
| 2026-05-06 11:05 | 45.60496 | 24.25765 | 38002 ft | 453 kts | 302° |
| 2026-05-06 11:05 | 45.63739 | 24.18046 | 38001 ft | 453 kts | 300° |
| 2026-05-06 11:06 | 45.66732 | 24.10117 | 37996 ft | 454 kts | 298° |
| 2026-05-06 11:06 | 45.69657 | 24.02106 | 37985 ft | 454 kts | 298° |
| 2026-05-06 11:07 | 45.72577 | 23.94090 | 37997 ft | 454 kts | 298° |
| 2026-05-06 11:07 | 45.75505 | 23.86077 | 38001 ft | 454 kts | 298° |
| 2026-05-06 11:08 | 45.78430 | 23.78072 | 37994 ft | 453 kts | 298° |
| 2026-05-06 11:08 | 45.81345 | 23.70081 | 37995 ft | 452 kts | 298° |
| 2026-05-06 11:09 | 45.84231 | 23.62138 | 37999 ft | 452 kts | 298° |
| 2026-05-06 11:09 | 45.87128 | 23.54151 | 38002 ft | 451 kts | 298° |
| 2026-05-06 11:10 | 45.90017 | 23.46157 | 38000 ft | 451 kts | 298° |
| 2026-05-06 11:10 | 45.92901 | 23.38148 | 38000 ft | 451 kts | 298° |
| 2026-05-06 11:11 | 45.95777 | 23.30142 | 38002 ft | 451 kts | 298° |
| 2026-05-06 11:11 | 45.98644 | 23.22123 | 38003 ft | 451 kts | 298° |
| 2026-05-06 11:12 | 46.01491 | 23.14153 | 38012 ft | 450 kts | 297° |
| 2026-05-06 11:12 | 46.04346 | 23.06139 | 38008 ft | 450 kts | 297° |
| 2026-05-06 11:13 | 46.07191 | 22.98117 | 38008 ft | 450 kts | 297° |
| 2026-05-06 11:13 | 46.10031 | 22.90087 | 37992 ft | 451 kts | 297° |
| 2026-05-06 11:14 | 46.12871 | 22.82033 | 37985 ft | 450 kts | 297° |
| 2026-05-06 11:14 | 46.15678 | 22.74054 | 37979 ft | 449 kts | 297° |
| 2026-05-06 11:15 | 46.18490 | 22.66032 | 37982 ft | 447 kts | 297° |
| 2026-05-06 11:15 | 46.21290 | 22.58020 | 37989 ft | 445 kts | 297° |
| 2026-05-06 11:16 | 46.24072 | 22.50043 | 37993 ft | 444 kts | 297° |
| 2026-05-06 11:16 | 46.26847 | 22.42054 | 37989 ft | 444 kts | 297° |
| 2026-05-06 11:17 | 46.29617 | 22.34058 | 37993 ft | 444 kts | 297° |
| 2026-05-06 11:17 | 46.32378 | 22.26068 | 37988 ft | 444 kts | 296° |
| 2026-05-06 11:18 | 46.35111 | 22.18127 | 37989 ft | 443 kts | 297° |
| 2026-05-06 11:18 | 46.37856 | 22.10129 | 37993 ft | 444 kts | 296° |
| 2026-05-06 11:19 | 46.40597 | 22.02117 | 37991 ft | 444 kts | 296° |
| 2026-05-06 11:19 | 46.43334 | 21.94101 | 37991 ft | 444 kts | 296° |
| 2026-05-06 11:20 | 46.46067 | 21.86068 | 37992 ft | 444 kts | 296° |
| 2026-05-06 11:20 | 46.48789 | 21.78036 | 37992 ft | 444 kts | 296° |
| 2026-05-06 11:21 | 46.51510 | 21.69994 | 37989 ft | 443 kts | 296° |
| 2026-05-06 11:21 | 46.54221 | 21.61954 | 37991 ft | 443 kts | 296° |
| 2026-05-06 11:22 | 46.56924 | 21.53895 | 37989 ft | 444 kts | 296° |
| 2026-05-06 11:22 | 46.59624 | 21.45826 | 37991 ft | 443 kts | 296° |
| 2026-05-06 11:23 | 46.62304 | 21.37812 | 37994 ft | 444 kts | 295° |
| 2026-05-06 11:23 | 46.64995 | 21.29731 | 37988 ft | 444 kts | 295° |
| 2026-05-06 11:24 | 46.67681 | 21.21639 | 37992 ft | 443 kts | 295° |
| 2026-05-06 11:24 | 46.70358 | 21.13545 | 37984 ft | 444 kts | 295° |
| 2026-05-06 11:25 | 46.73034 | 21.05429 | 37979 ft | 443 kts | 295° |
| 2026-05-06 11:25 | 46.75697 | 20.97328 | 37979 ft | 443 kts | 295° |
| 2026-05-06 11:26 | 46.78354 | 20.89223 | 37969 ft | 443 kts | 295° |
| 2026-05-06 11:26 | 46.81005 | 20.81108 | 37969 ft | 442 kts | 294° |
| 2026-05-06 11:27 | 46.83562 | 20.73260 | 37961 ft | 442 kts | 294° |
| 2026-05-06 11:27 | 46.85983 | 20.65804 | 37957 ft | 442 kts | 294° |
| 2026-05-06 11:28 | 46.88608 | 20.57691 | 37953 ft | 441 kts | 294° |
| 2026-05-06 11:28 | 46.91226 | 20.49575 | 37947 ft | 441 kts | 294° |
| 2026-05-06 11:29 | 46.93835 | 20.41474 | 37951 ft | 440 kts | 294° |
| 2026-05-06 11:29 | 46.96411 | 20.33446 | 37939 ft | 440 kts | 294° |
| 2026-05-06 11:30 | 46.99001 | 20.25336 | 37944 ft | 441 kts | 294° |
| 2026-05-06 11:30 | 47.01585 | 20.17228 | 37950 ft | 441 kts | 294° |
| 2026-05-06 11:31 | 47.04174 | 20.09078 | 37942 ft | 441 kts | 294° |
| 2026-05-06 11:31 | 47.06760 | 20.00911 | 37950 ft | 442 kts | 293° |
| 2026-05-06 11:32 | 47.09344 | 19.92727 | 37949 ft | 442 kts | 292° |
| 2026-05-06 11:32 | 47.11919 | 19.84532 | 37954 ft | 442 kts | 292° |
| 2026-05-06 11:33 | 47.14497 | 19.76310 | 37951 ft | 443 kts | 292° |
| 2026-05-06 11:33 | 47.17073 | 19.68075 | 37955 ft | 444 kts | 292° |
| 2026-05-06 11:34 | 47.19641 | 19.59828 | 37956 ft | 444 kts | 292° |
| 2026-05-06 11:34 | 47.22208 | 19.51564 | 37950 ft | 444 kts | 292° |
| 2026-05-06 11:35 | 47.24769 | 19.43283 | 37946 ft | 445 kts | 292° |
| 2026-05-06 11:35 | 47.27327 | 19.34994 | 37941 ft | 444 kts | 292° |
| 2026-05-06 11:36 | 47.29871 | 19.26717 | 37942 ft | 443 kts | 292° |
| 2026-05-06 11:36 | 47.32397 | 19.18483 | 37941 ft | 444 kts | 292° |
| 2026-05-06 11:37 | 47.34653 | 19.10051 | 37945 ft | 440 kts | 283° |
| 2026-05-06 11:37 | 47.36149 | 19.01305 | 37948 ft | 440 kts | 282° |
| 2026-05-06 11:38 | 47.37615 | 18.92536 | 37931 ft | 440 kts | 282° |
| 2026-05-06 11:38 | 47.39095 | 18.83765 | 37942 ft | 440 kts | 282° |
| 2026-05-06 11:39 | 47.40582 | 18.74994 | 37929 ft | 440 kts | 282° |
| 2026-05-06 11:39 | 47.42070 | 18.66208 | 37923 ft | 441 kts | 281° |
| 2026-05-06 11:40 | 47.43535 | 18.57469 | 37919 ft | 440 kts | 281° |
| 2026-05-06 11:40 | 47.45005 | 18.48675 | 37908 ft | 440 kts | 281° |
| 2026-05-06 11:41 | 47.46465 | 18.39886 | 37904 ft | 441 kts | 281° |
| 2026-05-06 11:41 | 47.47918 | 18.31086 | 37901 ft | 441 kts | 281° |
| 2026-05-06 11:42 | 47.49369 | 18.22287 | 37891 ft | 441 kts | 281° |
| 2026-05-06 11:42 | 47.50810 | 18.13466 | 37890 ft | 441 kts | 281° |
| 2026-05-06 11:43 | 47.52247 | 18.04635 | 37888 ft | 441 kts | 280° |
| 2026-05-06 11:43 | 47.53438 | 17.97287 | 37887 ft | 442 kts | 280° |
| 2026-05-06 11:44 | 47.55576 | 17.84016 | 37890 ft | 441 kts | 280° |
| 2026-05-06 11:44 | 47.56989 | 17.75177 | 37894 ft | 442 kts | 280° |
| 2026-05-06 11:45 | 47.58396 | 17.66319 | 37888 ft | 442 kts | 280° |
| 2026-05-06 11:45 | 47.59800 | 17.57458 | 37891 ft | 442 kts | 280° |
| 2026-05-06 11:46 | 47.61198 | 17.48588 | 37888 ft | 442 kts | 280° |
| 2026-05-06 11:46 | 47.62572 | 17.39783 | 37880 ft | 442 kts | 279° |
| 2026-05-06 11:47 | 47.63814 | 17.30878 | 37884 ft | 441 kts | 278° |
| 2026-05-06 11:47 | 47.65009 | 17.21949 | 37879 ft | 442 kts | 278° |
| 2026-05-06 11:48 | 47.66217 | 17.13018 | 37876 ft | 442 kts | 278° |
| 2026-05-06 11:48 | 47.67427 | 17.04078 | 37868 ft | 442 kts | 278° |
| 2026-05-06 11:49 | 47.69090 | 16.95274 | 37862 ft | 445 kts | 285° |
| 2026-05-06 11:49 | 47.71075 | 16.86569 | 37862 ft | 445 kts | 285° |
| 2026-05-06 11:50 | 47.73050 | 16.77841 | 37853 ft | 446 kts | 284° |
| 2026-05-06 11:50 | 47.75006 | 16.69085 | 37849 ft | 446 kts | 284° |
| 2026-05-06 11:51 | 47.76949 | 16.60314 | 37850 ft | 447 kts | 284° |
| 2026-05-06 11:51 | 47.78885 | 16.51541 | 37847 ft | 448 kts | 284° |
| 2026-05-06 11:52 | 47.80826 | 16.42707 | 37845 ft | 449 kts | 284° |
| 2026-05-06 11:52 | 47.82748 | 16.33907 | 37844 ft | 450 kts | 284° |
| 2026-05-06 11:53 | 47.84678 | 16.25043 | 37842 ft | 451 kts | 284° |
| 2026-05-06 11:53 | 47.86605 | 16.16155 | 37841 ft | 451 kts | 284° |
| 2026-05-06 11:54 | 47.88522 | 16.07265 | 37845 ft | 451 kts | 284° |
| 2026-05-06 11:54 | 47.90438 | 15.98358 | 37839 ft | 451 kts | 283° |
| 2026-05-06 11:55 | 47.92348 | 15.89448 | 37835 ft | 451 kts | 283° |
| 2026-05-06 11:55 | 47.94251 | 15.80527 | 37844 ft | 451 kts | 283° |
| 2026-05-06 11:56 | 47.96143 | 15.71598 | 37839 ft | 451 kts | 283° |
| 2026-05-06 11:56 | 47.98031 | 15.62663 | 37838 ft | 451 kts | 283° |
| 2026-05-06 11:57 | 47.99909 | 15.53736 | 37840 ft | 450 kts | 283° |
| 2026-05-06 11:57 | 48.01781 | 15.44806 | 37832 ft | 451 kts | 283° |
| 2026-05-06 11:58 | 48.03641 | 15.35867 | 37827 ft | 451 kts | 283° |
| 2026-05-06 11:58 | 48.05497 | 15.26935 | 37817 ft | 450 kts | 283° |
| 2026-05-06 11:59 | 48.07345 | 15.18000 | 37827 ft | 450 kts | 283° |
| 2026-05-06 11:59 | 48.09184 | 15.09052 | 37823 ft | 450 kts | 282° |
| 2026-05-06 12:00 | 48.11021 | 15.00096 | 37821 ft | 450 kts | 282° |
| 2026-05-06 12:00 | 48.12847 | 14.91133 | 37814 ft | 450 kts | 282° |
| 2026-05-06 12:01 | 48.14654 | 14.82214 | 37808 ft | 451 kts | 282° |
| 2026-05-06 12:01 | 48.16468 | 14.73228 | 37803 ft | 451 kts | 282° |
| 2026-05-06 12:02 | 48.18278 | 14.64237 | 37801 ft | 451 kts | 282° |
| 2026-05-06 12:02 | 48.20077 | 14.55254 | 37790 ft | 451 kts | 282° |
| 2026-05-06 12:03 | 48.21871 | 14.46241 | 37784 ft | 451 kts | 282° |
| 2026-05-06 12:03 | 48.23659 | 14.37222 | 37774 ft | 451 kts | 282° |
| 2026-05-06 12:04 | 48.25443 | 14.28195 | 37778 ft | 451 kts | 282° |
| 2026-05-06 12:04 | 48.27217 | 14.19164 | 37781 ft | 451 kts | 282° |
| 2026-05-06 12:05 | 48.28986 | 14.10120 | 37773 ft | 451 kts | 282° |
| 2026-05-06 12:05 | 48.30743 | 14.01072 | 37779 ft | 451 kts | 282° |
| 2026-05-06 12:06 | 48.32496 | 13.92033 | 37777 ft | 451 kts | 282° |
| 2026-05-06 12:06 | 48.34242 | 13.82990 | 37776 ft | 450 kts | 281° |
| 2026-05-06 12:07 | 48.35982 | 13.73939 | 37784 ft | 450 kts | 281° |
| 2026-05-06 12:07 | 48.37707 | 13.64888 | 37782 ft | 450 kts | 281° |
| 2026-05-06 12:08 | 48.39431 | 13.55818 | 37777 ft | 451 kts | 281° |
| 2026-05-06 12:08 | 48.41136 | 13.46807 | 37778 ft | 451 kts | 281° |
| 2026-05-06 12:09 | 48.42844 | 13.37734 | 37779 ft | 450 kts | 281° |
| 2026-05-06 12:09 | 48.44838 | 13.28791 | 37786 ft | 454 kts | 287° |
| 2026-05-06 12:10 | 48.47213 | 13.19940 | 37773 ft | 454 kts | 287° |
| 2026-05-06 12:10 | 48.49568 | 13.11106 | 37778 ft | 454 kts | 287° |
| 2026-05-06 12:11 | 48.51898 | 13.02267 | 37777 ft | 454 kts | 287° |
| 2026-05-06 12:11 | 48.54219 | 12.93401 | 37775 ft | 454 kts | 287° |
| 2026-05-06 12:12 | 48.56531 | 12.84529 | 37776 ft | 454 kts | 287° |
| 2026-05-06 12:12 | 48.58834 | 12.75657 | 37787 ft | 454 kts | 286° |
| 2026-05-06 12:13 | 48.61131 | 12.66778 | 37790 ft | 453 kts | 286° |
| 2026-05-06 12:13 | 48.63406 | 12.57950 | 37776 ft | 452 kts | 286° |
| 2026-05-06 12:14 | 48.65664 | 12.49138 | 37775 ft | 451 kts | 285° |
| 2026-05-06 12:14 | 48.67931 | 12.40281 | 37780 ft | 451 kts | 285° |
| 2026-05-06 12:15 | 48.70187 | 12.31416 | 37776 ft | 451 kts | 285° |
| 2026-05-06 12:15 | 48.72437 | 12.22551 | 37778 ft | 451 kts | 285° |
| 2026-05-06 12:16 | 48.74620 | 12.13641 | 37775 ft | 449 kts | 282° |
| 2026-05-06 12:16 | 48.75914 | 12.04539 | 37790 ft | 442 kts | 274° |
| 2026-05-06 12:17 | 48.76853 | 11.95322 | 37790 ft | 443 kts | 274° |
| 2026-05-06 12:17 | 48.77823 | 11.86026 | 37784 ft | 444 kts | 274° |
| 2026-05-06 12:18 | 48.78791 | 11.76856 | 37778 ft | 445 kts | 274° |
| 2026-05-06 12:18 | 48.79766 | 11.67580 | 37777 ft | 445 kts | 274° |
| 2026-05-06 12:19 | 48.80733 | 11.58308 | 37779 ft | 446 kts | 274° |
| 2026-05-06 12:19 | 48.81706 | 11.49019 | 37778 ft | 447 kts | 274° |
| 2026-05-06 12:20 | 48.82675 | 11.39704 | 37783 ft | 447 kts | 274° |
| 2026-05-06 12:20 | 48.83636 | 11.30377 | 37790 ft | 447 kts | 275° |
| 2026-05-06 12:21 | 48.84392 | 11.25773 | 37788 ft | 454 kts | 286° |
| 2026-05-06 12:21 | 48.85779 | 11.21430 | 37802 ft | 461 kts | 295° |
| 2026-05-06 12:21 | 48.87617 | 11.17432 | 37689 ft | 465 kts | 305° |
| 2026-05-06 12:21 | 48.89956 | 11.13969 | 37348 ft | 473 kts | 314° |
| 2026-05-06 12:22 | 48.92463 | 11.10716 | 36964 ft | 474 kts | 313° |
| 2026-05-06 12:22 | 48.94938 | 11.07411 | 36620 ft | 473 kts | 311° |
| 2026-05-06 12:22 | 48.97375 | 11.04045 | 36054 ft | 473 kts | 311° |
| 2026-05-06 12:22 | 48.99746 | 11.00699 | 35302 ft | 473 kts | 310° |
| 2026-05-06 12:23 | 49.02162 | 10.97266 | 34440 ft | 475 kts | 310° |
| 2026-05-06 12:23 | 49.04586 | 10.93827 | 33580 ft | 477 kts | 309° |
| 2026-05-06 12:23 | 49.07023 | 10.90379 | 32666 ft | 479 kts | 309° |
| 2026-05-06 12:23 | 49.09474 | 10.86915 | 31713 ft | 482 kts | 310° |
| 2026-05-06 12:24 | 49.11937 | 10.83438 | 30716 ft | 484 kts | 310° |
| 2026-05-06 12:24 | 49.14412 | 10.79948 | 30022 ft | 481 kts | 310° |
| 2026-05-06 12:24 | 49.16859 | 10.76492 | 29333 ft | 477 kts | 310° |
| 2026-05-06 12:24 | 49.19285 | 10.73058 | 28649 ft | 474 kts | 310° |
| 2026-05-06 12:25 | 49.21652 | 10.69590 | 27973 ft | 468 kts | 308° |
| 2026-05-06 12:25 | 49.23915 | 10.66034 | 27315 ft | 464 kts | 308° |
| 2026-05-06 12:25 | 49.26128 | 10.62467 | 26663 ft | 460 kts | 307° |
| 2026-05-06 12:25 | 49.28323 | 10.58935 | 26025 ft | 456 kts | 308° |
| 2026-05-06 12:26 | 49.30516 | 10.55436 | 25385 ft | 453 kts | 309° |
| 2026-05-06 12:26 | 49.32700 | 10.51979 | 24753 ft | 449 kts | 309° |
| 2026-05-06 12:26 | 49.34871 | 10.48548 | 24154 ft | 446 kts | 309° |
| 2026-05-06 12:26 | 49.36988 | 10.45054 | 23928 ft | 449 kts | 305° |
| 2026-05-06 12:27 | 49.38864 | 10.41233 | 23811 ft | 446 kts | 300° |
| 2026-05-06 12:27 | 49.40586 | 10.37300 | 23789 ft | 441 kts | 299° |
| 2026-05-06 12:27 | 49.42266 | 10.33377 | 23783 ft | 439 kts | 299° |
| 2026-05-06 12:27 | 49.43960 | 10.29476 | 23723 ft | 438 kts | 300° |
| 2026-05-06 12:28 | 49.45675 | 10.25612 | 23213 ft | 436 kts | 300° |
| 2026-05-06 12:28 | 49.47394 | 10.21798 | 22588 ft | 433 kts | 301° |
| 2026-05-06 12:28 | 49.48534 | 10.19286 | 22182 ft | 431 kts | 301° |
| 2026-05-06 12:28 | 49.50253 | 10.15501 | 21950 ft | 434 kts | 301° |
| 2026-05-06 12:29 | 49.51979 | 10.11687 | 21769 ft | 433 kts | 301° |
| 2026-05-06 12:29 | 49.54245 | 10.06673 | 21107 ft | 428 kts | 301° |
| 2026-05-06 12:29 | 49.55933 | 10.02935 | 20524 ft | 423 kts | 301° |
| 2026-05-06 12:29 | 49.57579 | 9.99286 | 19724 ft | 408 kts | 301° |
| 2026-05-06 12:30 | 49.58665 | 9.96874 | 18993 ft | 405 kts | 301° |
| 2026-05-06 12:30 | 49.60261 | 9.93321 | 17820 ft | 402 kts | 301° |
| 2026-05-06 12:30 | 49.61846 | 9.89790 | 16847 ft | 399 kts | 301° |
| 2026-05-06 12:30 | 49.63401 | 9.86314 | 16285 ft | 398 kts | 301° |
| 2026-05-06 12:31 | 49.64973 | 9.82796 | 16059 ft | 398 kts | 301° |
| 2026-05-06 12:31 | 49.66539 | 9.79292 | 15867 ft | 394 kts | 301° |
| 2026-05-06 12:31 | 49.68092 | 9.75813 | 15798 ft | 391 kts | 301° |
| 2026-05-06 12:31 | 49.69620 | 9.72388 | 15788 ft | 383 kts | 301° |
| 2026-05-06 12:32 | 49.71123 | 9.69012 | 15786 ft | 379 kts | 301° |
| 2026-05-06 12:32 | 49.72609 | 9.65668 | 15595 ft | 376 kts | 301° |
| 2026-05-06 12:32 | 49.74090 | 9.62333 | 15132 ft | 375 kts | 301° |
| 2026-05-06 12:32 | 49.75558 | 9.59017 | 14614 ft | 374 kts | 301° |
| 2026-05-06 12:33 | 49.77026 | 9.55703 | 14032 ft | 373 kts | 301° |
| 2026-05-06 12:33 | 49.78493 | 9.52385 | 13393 ft | 374 kts | 301° |
| 2026-05-06 12:33 | 49.79964 | 9.49057 | 12732 ft | 375 kts | 301° |
| 2026-05-06 12:33 | 49.81435 | 9.45722 | 12145 ft | 374 kts | 301° |
| 2026-05-06 12:34 | 49.82892 | 9.42419 | 11671 ft | 369 kts | 301° |
| 2026-05-06 12:34 | 49.84332 | 9.39146 | 11335 ft | 366 kts | 301° |
| 2026-05-06 12:34 | 49.85755 | 9.35896 | 11195 ft | 360 kts | 300° |
| 2026-05-06 12:34 | 49.86855 | 9.32499 | 10836 ft | 351 kts | 285° |
| 2026-05-06 12:35 | 49.87485 | 9.28896 | 10803 ft | 342 kts | 282° |
| 2026-05-06 12:35 | 49.88092 | 9.25404 | 10641 ft | 331 kts | 283° |
| 2026-05-06 12:35 | 49.88709 | 9.21999 | 10384 ft | 324 kts | 283° |
| 2026-05-06 12:35 | 49.89320 | 9.18727 | 10100 ft | 306 kts | 284° |
| 2026-05-06 12:36 | 49.89901 | 9.15656 | 9820 ft | 288 kts | 284° |
| 2026-05-06 12:36 | 49.90445 | 9.12789 | 9513 ft | 274 kts | 284° |
| 2026-05-06 12:36 | 49.90974 | 9.10005 | 9126 ft | 264 kts | 284° |
| 2026-05-06 12:36 | 49.91484 | 9.07312 | 8726 ft | 255 kts | 284° |
| 2026-05-06 12:37 | 49.91976 | 9.04714 | 8347 ft | 247 kts | 285° |
| 2026-05-06 12:37 | 49.92453 | 9.02185 | 7942 ft | 241 kts | 284° |
| 2026-05-06 12:37 | 49.92919 | 8.99709 | 7547 ft | 237 kts | 284° |
| 2026-05-06 12:37 | 49.93382 | 8.97261 | 7141 ft | 235 kts | 285° |
| 2026-05-06 12:38 | 49.93848 | 8.94796 | 6748 ft | 240 kts | 287° |
| 2026-05-06 12:38 | 49.94706 | 8.92568 | 6308 ft | 248 kts | 317° |
| 2026-05-06 12:38 | 49.96258 | 8.91384 | 5902 ft | 255 kts | 349° |
| 2026-05-06 12:38 | 49.98036 | 8.91348 | 5494 ft | 257 kts | 1° |
| 2026-05-06 12:39 | 49.99835 | 8.91458 | 5091 ft | 262 kts | 0° |
| 2026-05-06 12:39 | 50.01631 | 8.91782 | 4646 ft | 259 kts | 18° |
| 2026-05-06 12:39 | 50.03090 | 8.93328 | 4202 ft | 254 kts | 52° |
| 2026-05-06 12:39 | 50.03912 | 8.95665 | 4012 ft | 244 kts | 69° |
| 2026-05-06 12:40 | 50.04507 | 8.98184 | 4023 ft | 252 kts | 70° |
| 2026-05-06 12:40 | 50.05099 | 9.00743 | 4003 ft | 250 kts | 70° |
| 2026-05-06 12:40 | 50.05684 | 9.03262 | 3981 ft | 244 kts | 70° |
| 2026-05-06 12:40 | 50.06253 | 9.05721 | 3980 ft | 240 kts | 70° |
| 2026-05-06 12:41 | 50.07072 | 9.07966 | 3992 ft | 242 kts | 43° |
| 2026-05-06 12:41 | 50.08506 | 9.09275 | 4018 ft | 242 kts | 11° |
| 2026-05-06 12:41 | 50.10165 | 9.09246 | 4003 ft | 241 kts | 340° |
| 2026-05-06 12:41 | 50.11570 | 9.07954 | 3988 ft | 232 kts | 310° |
| 2026-05-06 12:42 | 50.12348 | 9.05832 | 4005 ft | 224 kts | 286° |
| 2026-05-06 12:42 | 50.12787 | 9.03478 | 4002 ft | 229 kts | 284° |
| 2026-05-06 12:42 | 50.13217 | 9.01071 | 4004 ft | 232 kts | 284° |
| 2026-05-06 12:42 | 50.13641 | 8.98653 | 3986 ft | 229 kts | 283° |
| 2026-05-06 12:43 | 50.14056 | 8.96276 | 3983 ft | 225 kts | 283° |
| 2026-05-06 12:43 | 50.14140 | 8.93902 | 3991 ft | 222 kts | 254° |
| 2026-05-06 12:43 | 50.13401 | 8.91837 | 4000 ft | 218 kts | 226° |
| 2026-05-06 12:43 | 50.12383 | 8.90111 | 4001 ft | 216 kts | 233° |
| 2026-05-06 12:44 | 50.11569 | 8.88182 | 3999 ft | 215 kts | 241° |
| 2026-05-06 12:44 | 50.10919 | 8.86087 | 3991 ft | 213 kts | 246° |
| 2026-05-06 12:44 | 50.10337 | 8.84034 | 3980 ft | 201 kts | 245° |
| 2026-05-06 12:44 | 50.09792 | 8.82106 | 4001 ft | 190 kts | 246° |
| 2026-05-06 12:45 | 50.09249 | 8.80212 | 4016 ft | 192 kts | 245° |
| 2026-05-06 12:45 | 50.08712 | 8.78322 | 3998 ft | 189 kts | 248° |
| 2026-05-06 12:45 | 50.08054 | 8.74438 | 3999 ft | 186 kts | 258° |
| 2026-05-06 12:46 | 50.07652 | 8.72561 | 3980 ft | 185 kts | 233° |
| 2026-05-06 12:46 | 50.06593 | 8.71424 | 4003 ft | 194 kts | 196° |
| 2026-05-06 12:46 | 50.05233 | 8.71570 | 4005 ft | 205 kts | 159° |
| 2026-05-06 12:46 | 50.04131 | 8.73012 | 3995 ft | 216 kts | 123° |
| 2026-05-06 12:47 | 50.03714 | 8.75299 | 4017 ft | 229 kts | 92° |
| 2026-05-06 12:47 | 50.03825 | 8.77805 | 3998 ft | 235 kts | 84° |
| 2026-05-06 12:47 | 50.04019 | 8.80358 | 3995 ft | 235 kts | 84° |
| 2026-05-06 12:47 | 50.04215 | 8.82877 | 3994 ft | 235 kts | 84° |
| 2026-05-06 12:48 | 50.04415 | 8.85417 | 4019 ft | 239 kts | 83° |
| 2026-05-06 12:48 | 50.04620 | 8.87960 | 3996 ft | 240 kts | 83° |
| 2026-05-06 12:48 | 50.04827 | 8.90529 | 3992 ft | 239 kts | 84° |
| 2026-05-06 12:48 | 50.05035 | 8.93091 | 4004 ft | 239 kts | 83° |
| 2026-05-06 12:49 | 50.05285 | 8.95674 | 3993 ft | 243 kts | 75° |
| 2026-05-06 12:49 | 50.06121 | 8.97922 | 3992 ft | 241 kts | 42° |
| 2026-05-06 12:49 | 50.07538 | 8.99120 | 3977 ft | 229 kts | 9° |
| 2026-05-06 12:49 | 50.09054 | 8.98943 | 3979 ft | 216 kts | 334° |
| 2026-05-06 12:50 | 50.10188 | 8.97524 | 3982 ft | 209 kts | 300° |
| 2026-05-06 12:50 | 50.10738 | 8.95454 | 4017 ft | 208 kts | 285° |
| 2026-05-06 12:50 | 50.11146 | 8.93261 | 3999 ft | 212 kts | 284° |
| 2026-05-06 12:50 | 50.11346 | 8.91053 | 3979 ft | 203 kts | 261° |
| 2026-05-06 12:51 | 50.11051 | 8.88966 | 4003 ft | 195 kts | 256° |
| 2026-05-06 12:51 | 50.10689 | 8.86945 | 3996 ft | 192 kts | 252° |
| 2026-05-06 12:51 | 50.10265 | 8.84993 | 3843 ft | 191 kts | 250° |
| 2026-05-06 12:51 | 50.09815 | 8.83060 | 3597 ft | 188 kts | 250° |
| 2026-05-06 12:52 | 50.09366 | 8.81164 | 3370 ft | 186 kts | 249° |
| 2026-05-06 12:52 | 50.08918 | 8.79283 | 3106 ft | 185 kts | 249° |
| 2026-05-06 12:52 | 50.08475 | 8.77423 | 2881 ft | 180 kts | 249° |
| 2026-05-06 12:52 | 50.08050 | 8.75634 | 2637 ft | 174 kts | 249° |
| 2026-05-06 12:53 | 50.07639 | 8.73908 | 2427 ft | 166 kts | 248° |
| 2026-05-06 12:53 | 50.07245 | 8.72255 | 2190 ft | 160 kts | 248° |
| 2026-05-06 12:53 | 50.06860 | 8.70630 | 1986 ft | 159 kts | 248° |
| 2026-05-06 12:53 | 50.06475 | 8.69025 | 1772 ft | 157 kts | 246° |
| 2026-05-06 12:54 | 50.06101 | 8.67449 | 1584 ft | 157 kts | 246° |
| 2026-05-06 12:54 | 50.05726 | 8.65866 | 1368 ft | 152 kts | 246° |
| 2026-05-06 12:54 | 50.05371 | 8.64381 | 1158 ft | 143 kts | 246° |
| 2026-05-06 12:54 | 50.05028 | 8.62950 | 979 ft | 141 kts | 246° |
| 2026-05-06 12:55 | 50.04689 | 8.61503 | 794 ft | 144 kts | 249° |
| 2026-05-06 12:55 | 50.04343 | 8.60047 | 613 ft | 144 kts | 248° |
| 2026-05-06 12:55 | 50.03998 | 8.58594 | 419 ft | 142 kts | 248° |
| 2026-05-06 12:55 | 50.03676 | 8.57276 | 359 ft | 99 kts | 252° |
| 2026-05-06 12:56 | 50.03455 | 8.56360 | 359 ft | 85 kts | 248° |
| 2026-05-06 12:56 | 50.03286 | 8.55684 | 349 ft | 42 kts | 244° |
| 2026-05-06 12:56 | 50.03142 | 8.55456 | 350 ft | 23 kts | 213° |
| 2026-05-06 12:56 | 50.03070 | 8.55519 | 350 ft | 13 kts | 90° |
| 2026-05-06 12:57 | 50.03070 | 8.55537 | 347 ft | 0 kts | 88° |
| 2026-05-06 12:57 | 50.03079 | 8.55586 | 347 ft | 17 kts | 71° |
| 2026-05-06 12:57 | 50.03124 | 8.55762 | 354 ft | 13 kts | 68° |
| 2026-05-06 12:57 | 50.03156 | 8.55891 | 356 ft | 13 kts | 69° |
| 2026-05-06 12:58 | 50.03187 | 8.56020 | 355 ft | 13 kts | 70° |
| 2026-05-06 12:58 | 50.03216 | 8.56150 | 352 ft | 13 kts | 70° |
| 2026-05-06 12:58 | 50.03249 | 8.56289 | 352 ft | 17 kts | 69° |
| 2026-05-06 12:58 | 50.03291 | 8.56461 | 353 ft | 16 kts | 69° |
| 2026-05-06 12:59 | 50.03330 | 8.56625 | 358 ft | 16 kts | 70° |
| 2026-05-06 12:59 | 50.03344 | 8.56749 | 355 ft | 11 kts | 107° |
| 2026-05-06 12:59 | 50.03285 | 8.56822 | 357 ft | 11 kts | 156° |
| 2026-05-06 12:59 | 50.03212 | 8.56867 | 358 ft | 11 kts | 160° |
| 2026-05-06 13:00 | 50.03133 | 8.56914 | 363 ft | 13 kts | 158° |
| 2026-05-06 13:00 | 50.03055 | 8.56982 | 359 ft | 10 kts | 136° |
| 2026-05-06 13:00 | 50.03052 | 8.57052 | 361 ft | 6 kts | 47° |
| 2026-05-06 13:00 | 50.03093 | 8.57084 | 360 ft | 7 kts | 25° |
| 2026-05-06 13:01 | 50.03127 | 8.57109 | 361 ft | 1 kts | 25° |
| 2026-05-06 13:01 | 50.03133 | 8.57113 | 367 ft | 1 kts | 25° |
| 2026-05-06 13:01 | 50.03139 | 8.57118 | 367 ft | 0 kts | 25° |